Flight Track Log - Related Links

Times and Time Zones

All times are in EDT time to prevent confusion due to time zone crossing. See the UAL139 flight status page for this flight to view local times or setup timezone preferences in your user account.

Time Position Orientation Groundspeed Altitude Reporting Facility
EDT Latitude Longitude Course Direction KTS MPH feet Rate Location/Type
Fri 02:33:05 PM 39.8570 -104.6750 351° North  Level FlightAware ADS-B
Fri 02:59:00 PM 40.0340 -104.8945 312° West  Level Estimated
Fri 03:00:00 PM 40.1161 -105.0134 312° West  Level Estimated
Fri 03:01:53 PM 39.8894 -104.6960 180° South 94 108  Level FlightAware ADS-B
Fri 03:02:01 PM 39.8852 -104.6960 180° South 113 130 5,200 18,353 Climbing FlightAware ADS-B
Fri 03:02:10 PM 39.8793 -104.6960 180° South 155 178 5,200  Level FlightAware ADS-B
Fri 03:02:27 PM 39.8652 -104.6960 180° South 198 228 5,200 774 Level FlightAware ADS-B
Fri 03:02:41 PM 39.8510 -104.6970 183° South 213 245 5,600 1,579 Climbing FlightAware ADS-B
Fri 03:02:46 PM 39.8462 -104.6970 180° South 217 250 5,700 2,000 Climbing FlightAware ADS-B
Fri 03:02:50 PM 39.8424 -104.6980 191° South 219 252 5,900 2,250 Climbing FlightAware ADS-B
Fri 03:02:54 PM 39.8383 -104.6990 191° South 219 252 6,000 2,000 Climbing FlightAware ADS-B
Fri 03:03:02 PM 39.8313 -104.7030 204° Southwest 219 252 6,300 2,500 Climbing FlightAware ADS-B
Fri 03:03:06 PM 39.8273 -104.7070 218° Southwest 219 252 6,500 2,250 Climbing FlightAware ADS-B
Fri 03:03:10 PM 39.8243 -104.7100 218° Southwest 221 254 6,600 1,333 Climbing FlightAware ADS-B
Fri 03:03:15 PM 39.8216 -104.7150 235° Southwest 222 255 6,700 1,500 Climbing FlightAware ADS-B
Fri 03:03:18 PM 39.8200 -104.7180 235° Southwest 224 258 6,800 2,000 Climbing FlightAware ADS-B
Fri 03:03:21 PM 39.8185 -104.7220 244° Southwest 228 262 6,900 1,714 Climbing FlightAware ADS-B
Fri 03:03:25 PM 39.8174 -104.7270 254° West 230 265 7,000 857 Climbing FlightAware ADS-B
Fri 03:03:28 PM 39.8167 -104.7320 260° West 234 269 7,000  Level FlightAware ADS-B
Fri 03:03:32 PM 39.8164 -104.7370 266° West 240 276 7,000  Level FlightAware ADS-B
Fri 03:03:35 PM 39.8166 -104.7420 273° West 246 283 7,000 750 Level FlightAware ADS-B
Fri 03:03:40 PM 39.8176 -104.7500 279° West 250 288 7,100 600 Climbing FlightAware ADS-B
Fri 03:03:45 PM 39.8195 -104.7560 292° West 255 293 7,100  Level FlightAware ADS-B
Fri 03:03:49 PM 39.8221 -104.7630 296° West 259 298 7,100 750 Level FlightAware ADS-B
Fri 03:03:53 PM 39.8248 -104.7680 305° West 265 305 7,200 1,286 Climbing FlightAware ADS-B
Fri 03:04:03 PM 39.8329 -104.7800 311° West 273 314 7,400 1,385 Climbing FlightAware ADS-B
Fri 03:04:19 PM 39.8468 -104.8000 312° West 286 329 7,800 1,688 Climbing FlightAware ADS-B
Fri 03:04:35 PM 39.8604 -104.8210 310° West 295 339 8,300 1,935 Climbing FlightAware ADS-B
Fri 03:04:50 PM 39.8736 -104.8410 311° West 299 344 8,800 2,000 Climbing FlightAware ADS-B
Fri 03:05:05 PM 39.8866 -104.8630 308° West 308 354 9,300 1,600 Climbing FlightAware ADS-B
Fri 03:05:20 PM 39.9003 -104.8850 309° West 306 352 9,600 1,333 Climbing FlightAware ADS-B
Fri 03:05:23 PM 39.9031 -104.8890 312° West 305 351 9,700 1,333 Climbing FlightAware ADS-B
Fri 03:05:29 PM 39.9084 -104.8970 311° West 302 348 9,800 800 Climbing FlightAware ADS-B
Fri 03:05:38 PM 39.9176 -104.9080 317° Northwest 301 346 9,900 1,200 Climbing FlightAware ADS-B
Fri 03:05:44 PM 39.9247 -104.9140 327° Northwest 302 348 10,100 1,714 Climbing FlightAware ADS-B
Fri 03:05:52 PM 39.9341 -104.9220 327° Northwest 308 354 10,300 1,200 Climbing FlightAware ADS-B
Fri 03:06:09 PM 39.9553 -104.9380 330° Northwest 324 373 10,600 1,000 Climbing FlightAware ADS-B
Fri 03:06:16 PM 39.9658 -104.9430 340° North 334 384 10,700 923 Climbing FlightAware ADS-B
Fri 03:06:22 PM 39.9759 -104.9470 343° North 343 395 10,800 500 Climbing FlightAware ADS-B
Fri 03:06:28 PM 39.9852 -104.9480 355° North 350 403 10,800 800 Level FlightAware ADS-B
Fri 03:06:37 PM 39.9999 -104.9490 357° North 355 409 11,000 1,600 Climbing FlightAware ADS-B
Fri 03:06:43 PM 40.0089 -104.9480 North 359 413 11,200 2,250 Climbing FlightAware ADS-B
Fri 03:07:09 PM 40.0533 -104.9450 North 367 422 12,200 2,129 Climbing FlightAware ADS-B
Fri 03:07:14 PM 40.0621 -104.9430 10° North 367 422 12,300 1,846 Climbing FlightAware ADS-B
Fri 03:07:22 PM 40.0744 -104.9400 11° North 368 423 12,600 2,118 Climbing FlightAware ADS-B
Fri 03:07:31 PM 40.0885 -104.9330 21° North 370 426 12,900 2,250 Climbing FlightAware ADS-B
Fri 03:07:38 PM 40.1000 -104.9250 28° Northeast 372 428 13,200 2,400 Climbing FlightAware ADS-B
Fri 03:07:46 PM 40.1111 -104.9150 35° Northeast 374 430 13,500 2,154 Climbing FlightAware ADS-B
Fri 03:08:17 PM 40.1537 -104.8720 38° Northeast 379 436 14,600 2,222 Climbing FlightAware ADS-B
Fri 03:08:40 PM 40.1876 -104.8400 36° Northeast 384 442 15,500 2,108 Climbing FlightAware ADS-B
Fri 03:08:54 PM 40.2096 -104.8270 24° Northeast 387 445 15,900 1,750 Climbing FlightAware ADS-B
Fri 03:09:04 PM 40.2272 -104.8200 17° North 388 447 16,200 1,950 Climbing FlightAware ADS-B
Fri 03:09:34 PM 40.2811 -104.8080 10° North 394 453 17,200 1,759 Climbing FlightAware ADS-B
Fri 03:10:02 PM 40.3318 -104.8060 North 402 463 17,900 1,650 Climbing FlightAware ADS-B
Fri 03:10:14 PM 40.3547 -104.8100 352° North 403 464 18,300 1,846 Climbing FlightAware ADS-B
Fri 03:10:54 PM 40.4240 -104.8260 350° North 406 467 19,500 1,925 Climbing FlightAware ADS-B
Fri 03:11:07 PM 40.4511 -104.8330 349° North 406 467 20,000 1,684 Climbing FlightAware ADS-B
Fri 03:11:51 PM 40.5346 -104.8550 349° North 409 471 21,100 1,600 Climbing FlightAware ADS-B
Fri 03:12:07 PM 40.5617 -104.8700 337° Northwest 415 478 21,600 1,920 Climbing FlightAware ADS-B
Fri 03:12:16 PM 40.5778 -104.8830 328° Northwest 413 475 21,900 1,538 Climbing FlightAware ADS-B
Fri 03:12:46 PM 40.6242 -104.9280 324° Northwest 418 481 22,600 1,180 Climbing FlightAware ADS-B
Fri 03:13:17 PM 40.6716 -104.9750 323° Northwest 423 487 23,100 1,279 Climbing FlightAware ADS-B
Fri 03:13:47 PM 40.7196 -105.0230 323° Northwest 428 493 23,900 1,440 Climbing FlightAware ADS-B
Fri 03:14:07 PM 40.7506 -105.0540 323° Northwest 430 495 24,300 1,320 Climbing FlightAware ADS-B
Fri 03:14:37 PM 40.7974 -105.1050 320° Northwest 437 503 25,000 1,143 Climbing FlightAware ADS-B
Fri 03:15:10 PM 40.8479 -105.1620 320° Northwest 443 510 25,500 1,014 Climbing FlightAware ADS-B
Fri 03:15:48 PM 40.9079 -105.2290 320° Northwest 450 518 26,200 1,174 Climbing FlightAware ADS-B
Fri 03:16:42 PM 40.9950 -105.3280 319° Northwest 465 535 27,300 1,256 Climbing FlightAware ADS-B
Fri 03:17:14 PM 41.0480 -105.3890 319° Northwest 470 541 28,000 1,154 Climbing FlightAware ADS-B
Fri 03:18:00 PM 41.1260 -105.4770 320° Northwest 477 549 28,800 975 Climbing FlightAware ADS-B
Fri 03:18:34 PM 41.1810 -105.5400 319° Northwest 482 555 29,300 968 Climbing FlightAware ADS-B
Fri 03:19:02 PM 41.2270 -105.5930 319° Northwest 487 560 29,800 971 Climbing FlightAware ADS-B
Fri 03:19:42 PM 41.2970 -105.6740 319° Northwest 496 571 30,400 935 Climbing FlightAware ADS-B
Fri 03:20:19 PM 41.3540 -105.7520 314° West 496 571 31,000 973 Climbing FlightAware ADS-B
Fri 03:20:56 PM 41.4060 -105.8430 307° West 500 575 31,600 930 Climbing FlightAware ADS-B
Fri 03:21:30 PM 41.4540 -105.9320 306° West 505 581 32,100 857 Climbing FlightAware ADS-B
Fri 03:22:06 PM 41.5040 -106.0220 307° West 509 586 32,600 882 Climbing FlightAware ADS-B
Fri 03:22:38 PM 41.5490 -106.1040 306° West 511 588 33,100 1,219 Climbing FlightAware ADS-B
Fri 03:23:10 PM 41.5930 -106.1860 306° West 508 585 33,900 1,479 Climbing FlightAware ADS-B
Fri 03:23:51 PM 41.6480 -106.2860 306° West 503 579 34,900 1,184 Climbing FlightAware ADS-B
Fri 03:24:26 PM 41.6970 -106.3750 306° West 504 580 35,400 923 Climbing FlightAware ADS-B
Fri 03:24:56 PM 41.7380 -106.4510 306° West 500 575 35,900 429 Climbing FlightAware ADS-B
Fri 03:25:36 PM 41.7830 -106.5370 305° West 500 575 35,900 59 Level FlightAware ADS-B
Fri 03:26:37 PM 41.8672 -106.6961 305° West 493 567 36,000 49 Climbing Salt Lake Center
Fri 03:27:39 PM 41.9442 -106.8394 306° West 495 570 36,000  Level Salt Lake Center
Fri 03:28:41 PM 42.0342 -107.0047 306° West 493 567 36,000  Level Salt Lake Center
Fri 03:29:43 PM 42.1128 -107.1514 306° West 502 578 36,000  Level Salt Lake Center
Fri 03:30:45 PM 42.1994 -107.3181 305° West 491 565 36,000  Level Salt Lake Center
Fri 03:31:47 PM 42.2758 -107.4631 305° West 498 573 36,000  Level Salt Lake Center
Fri 03:32:49 PM 42.3633 -107.6314 305° West 495 570 36,000  Level Salt Lake Center
Fri 03:33:51 PM 42.4400 -107.7764 306° West 494 568 36,000  Level Salt Lake Center
Fri 03:34:53 PM 42.5258 -107.9469 304° West 495 570 36,000  Level Salt Lake Center
Fri 03:35:55 PM 42.6006 -108.0925 305° West 494 568 36,000  Level Salt Lake Center
Fri 03:36:57 PM 42.6758 -108.2367 305° West 491 565 36,000  Level Salt Lake Center
Fri 03:37:59 PM 42.7636 -108.4092 305° West 496 571 36,000  Level Salt Lake Center
Fri 03:39:01 PM 42.8372 -108.5575 304° West 497 572 36,000  Level Salt Lake Center
Fri 03:40:03 PM 42.9244 -108.7311 304° West 498 573 36,000  Level Salt Lake Center
Fri 03:41:05 PM 43.0008 -108.8847 304° West 491 565 36,000  Level Salt Lake Center
Fri 03:42:07 PM 43.0778 -109.0389 304° West 491 565 36,000  Level Salt Lake Center
Fri 03:43:09 PM 43.1556 -109.1936 305° West 492 566 36,000  Level Salt Lake Center
Fri 03:44:11 PM 43.2319 -109.3508 304° West 493 567 36,000  Level Salt Lake Center
Fri 03:45:13 PM 43.3219 -109.5378 304° West 490 564 36,000 144 Level Salt Lake Center
Fri 03:46:16 PM 43.3889 -109.6992 300° West 486 559 36,300 629 Climbing Salt Lake Center
Fri 03:47:17 PM 43.4539 -109.8508 301° West 483 556 37,300 829 Climbing Salt Lake Center
Fri 03:48:19 PM 43.5258 -110.0200 300° West 478 550 38,000 339 Climbing Salt Lake Center
Fri 03:49:21 PM 43.5886 -110.1722 300° West 478 550 38,000  Level Salt Lake Center
Fri 03:50:23 PM 43.6619 -110.3514 300° West 480 552 38,000  Level Salt Lake Center
Fri 03:51:25 PM 43.7264 -110.5008 301° West 476 548 38,000  Level Salt Lake Center
Fri 03:52:27 PM 43.7997 -110.6806 300° West 479 551 38,000  Level Salt Lake Center
Fri 03:53:29 PM 43.8597 -110.8344 298° West 475 547 38,000  Level Salt Lake Center
Fri 03:54:31 PM 43.9308 -111.0122 299° West 472 543 38,000  Level Salt Lake Center
Fri 03:55:33 PM 43.9917 -111.1644 299° West 471 542 38,000  Level Salt Lake Center
Fri 03:56:35 PM 44.0636 -111.3425 299° West 470 541 38,000  Level Salt Lake Center
Fri 03:57:37 PM 44.1239 -111.4981 298° West 473 544 38,000  Level Salt Lake Center
Fri 03:58:39 PM 44.1847 -111.6533 299° West 474 545 38,000  Level Salt Lake Center
Fri 03:59:41 PM 44.2567 -111.8344 299° West 474 545 38,000  Level Salt Lake Center
Fri 04:00:43 PM 44.3167 -111.9889 299° West 474 545 38,000  Level Salt Lake Center
Fri 04:01:45 PM 44.3867 -112.1675 299° West 469 540 38,000  Level Salt Lake Center
Fri 04:02:47 PM 44.4453 -112.3194 298° West 464 534 38,000  Level Salt Lake Center
Fri 04:03:49 PM 44.5142 -112.4992 298° West 466 536 38,000  Level Salt Lake Center
Fri 04:04:51 PM 44.5725 -112.6542 298° West 468 539 38,000  Level Salt Lake Center
Fri 04:05:53 PM 44.6319 -112.8094 298° West 469 540 38,000  Level Salt Lake Center
Fri 04:06:55 PM 44.6983 -112.9883 298° West 465 535 38,000  Level Salt Lake Center
Fri 04:07:57 PM 44.7544 -113.1411 297° West 462 532 38,000  Level Salt Lake Center
Fri 04:08:59 PM 44.8217 -113.3214 298° West 464 534 38,000  Level Salt Lake Center
Fri 04:10:01 PM 44.8806 -113.4731 299° West 463 533 38,000  Level Salt Lake Center
Fri 04:11:03 PM 44.9436 -113.6506 297° West 455 524 38,000  Level Salt Lake Center
Fri 04:12:05 PM 45.0003 -113.8036 298° West 458 527 38,000  Level Salt Lake Center
Fri 04:13:06 PM 45.0650 -113.9856 297° West 462 532 38,000  Level Salt Lake Center
Fri 04:14:08 PM 45.1225 -114.1419 298° West 466 536 38,000  Level Salt Lake Center
Fri 04:19:13 PM 45.4230 -114.9980 298° West 472 543 38,000  Level FlightAware ADS-B
Fri 04:19:55 PM 45.4580 -115.1000 296° West 472 543 38,000  Level FlightAware ADS-B
Fri 04:20:32 PM 45.4990 -115.2170 297° West 468 539 38,000  Level FlightAware ADS-B
Fri 04:21:07 PM 45.5330 -115.3150 296° West 467 537 38,000  Level FlightAware ADS-B
Fri 04:21:41 PM 45.5650 -115.4110 295° West 466 536 38,000  Level FlightAware ADS-B
Fri 04:22:17 PM 45.5990 -115.5100 296° West 466 536 38,000  Level FlightAware ADS-B
Fri 04:22:53 PM 45.6330 -115.6100 296° West 469 540 38,000  Level FlightAware ADS-B
Fri 04:23:25 PM 45.6640 -115.7000 296° West 473 544 38,000  Level FlightAware ADS-B
Fri 04:23:59 PM 45.6950 -115.7930 296° West 471 542 38,000  Level FlightAware ADS-B
Fri 04:24:37 PM 45.7320 -115.9010 296° West 472 543 38,000  Level FlightAware ADS-B
Fri 04:25:13 PM 45.7660 -116.0030 296° West 476 548 38,000  Level FlightAware ADS-B
Fri 04:25:47 PM 45.7980 -116.0980 296° West 479 551 38,000  Level FlightAware ADS-B
Fri 04:26:23 PM 45.8320 -116.2030 295° West 472 543 38,000  Level FlightAware ADS-B
Fri 04:26:53 PM 45.8590 -116.2820 296° West 474 545 38,000  Level FlightAware ADS-B
Fri 04:27:27 PM 45.8920 -116.3820 295° West 471 542 38,000  Level FlightAware ADS-B
Fri 04:28:09 PM 45.9310 -116.5000 295° West 475 547 38,000  Level FlightAware ADS-B
Fri 04:28:41 PM 45.9600 -116.5910 295° West 475 547 38,000  Level FlightAware ADS-B
Fri 04:29:17 PM 45.9940 -116.6950 295° West 475 547 38,000  Level FlightAware ADS-B
Fri 04:29:51 PM 46.0260 -116.7920 295° West 478 550 38,000  Level FlightAware ADS-B
Fri 04:30:23 PM 46.0560 -116.8840 295° West 477 549 38,000  Level FlightAware ADS-B
Fri 04:31:02 PM 46.0910 -116.9940 295° West 479 551 38,000  Level FlightAware ADS-B
Fri 04:31:29 PM 46.1170 -117.0740 295° West 480 552 38,000  Level FlightAware ADS-B
Fri 04:32:17 PM 46.1610 -117.2120 295° West 476 548 38,000  Level FlightAware ADS-B
Fri 04:32:54 PM 46.1900 -117.3020 295° West 476 548 38,000  Level FlightAware ADS-B
Fri 04:33:26 PM 46.2260 -117.4050 297° West 470 541 38,000  Level FlightAware ADS-B
Fri 04:33:59 PM 46.2590 -117.5050 296° West 469 540 38,000  Level FlightAware ADS-B
Fri 04:34:37 PM 46.2930 -117.6080 296° West 471 542 38,000  Level FlightAware ADS-B
Fri 04:35:13 PM 46.3270 -117.7130 295° West 471 542 38,000  Level FlightAware ADS-B
Fri 04:35:46 PM 46.3580 -117.8070 296° West 475 547 38,000  Level FlightAware ADS-B
Fri 04:36:25 PM 46.3940 -117.9180 295° West 478 550 38,000  Level FlightAware ADS-B
Fri 04:36:58 PM 46.4250 -118.0150 295° West 479 551 38,000  Level FlightAware ADS-B
Fri 04:37:34 PM 46.4600 -118.1210 296° West 478 550 38,000  Level FlightAware ADS-B
Fri 04:38:10 PM 46.4920 -118.2230 295° West 475 547 38,000  Level FlightAware ADS-B
Fri 04:38:46 PM 46.5260 -118.3280 295° West 474 545 38,000  Level FlightAware ADS-B
Fri 04:39:18 PM 46.5550 -118.4210 294° West 470 541 38,000  Level FlightAware ADS-B
Fri 04:39:54 PM 46.5880 -118.5230 295° West 470 541 38,000  Level FlightAware ADS-B
Fri 04:40:26 PM 46.6170 -118.6150 295° West 472 543 38,000  Level FlightAware ADS-B
Fri 04:41:02 PM 46.6490 -118.7170 295° West 471 542 38,000  Level FlightAware ADS-B
Fri 04:41:38 PM 46.6820 -118.8230 294° West 471 542 38,000  Level FlightAware ADS-B
Fri 04:41:51 PM 46.6944 -118.8610 295° West 471 542 38,000  Level FlightAware ADS-B
Fri 04:42:23 PM 46.7227 -118.9520 294° West 474 545 38,000  Level FlightAware ADS-B
Fri 04:42:54 PM 46.7509 -119.0420 295° West 472 543 38,000  Level FlightAware ADS-B
Fri 04:43:26 PM 46.7793 -119.1340 294° West 473 544 38,000  Level FlightAware ADS-B
Fri 04:43:59 PM 46.8092 -119.2310 294° West 468 539 38,000  Level FlightAware ADS-B
Fri 04:44:30 PM 46.8358 -119.3180 294° West 467 537 38,000  Level FlightAware ADS-B
Fri 04:45:00 PM 46.8626 -119.4050 294° West 468 539 38,000  Level FlightAware ADS-B
Fri 04:45:31 PM 46.8896 -119.4940 294° West 465 535 38,000  Level FlightAware ADS-B
Fri 04:46:01 PM 46.9160 -119.5810 294° West 462 532 38,000  Level FlightAware ADS-B
Fri 04:46:32 PM 46.9427 -119.6680 294° West 462 532 38,000  Level FlightAware ADS-B
Fri 04:47:03 PM 46.9691 -119.7560 294° West 464 534 38,000  Level FlightAware ADS-B
Fri 04:47:36 PM 46.9980 -119.8520 294° West 468 539 38,000  Level FlightAware ADS-B
Fri 04:48:08 PM 47.0259 -119.9450 294° West 470 541 38,000  Level FlightAware ADS-B
Fri 04:48:38 PM 47.0521 -120.0330 294° West 469 540 38,000  Level FlightAware ADS-B
Fri 04:49:08 PM 47.0782 -120.1200 294° West 470 541 38,000  Level FlightAware ADS-B
Fri 04:49:38 PM 47.1043 -120.2080 294° West 471 542 38,000  Level FlightAware ADS-B
Fri 04:50:08 PM 47.1305 -120.2960 294° West 472 543 38,000  Level FlightAware ADS-B
Fri 04:50:40 PM 47.1579 -120.3900 293° West 471 542 38,000  Level FlightAware ADS-B
Fri 04:51:10 PM 47.1839 -120.4780 294° West 473 544 38,000  Level FlightAware ADS-B
Fri 04:51:40 PM 47.2097 -120.5670 293° West 474 545 38,000  Level FlightAware ADS-B
Fri 04:52:11 PM 47.2360 -120.6570 293° West 476 548 38,000  Level FlightAware ADS-B
Fri 04:52:41 PM 47.2620 -120.7460 293° West 477 549 38,000  Level FlightAware ADS-B
Fri 04:53:11 PM 47.2881 -120.8360 293° West 476 548 38,000  Level FlightAware ADS-B
Fri 04:53:42 PM 47.3145 -120.9280 293° West 474 545 38,000  Level FlightAware ADS-B
Fri 04:54:12 PM 47.3402 -121.0180 293° West 476 548 38,000  Level FlightAware ADS-B
Fri 04:54:42 PM 47.3657 -121.1070 293° West 476 548 38,000  Level FlightAware ADS-B
Fri 04:55:12 PM 47.3916 -121.1980 293° West 477 549 38,000  Level FlightAware ADS-B
Fri 04:55:43 PM 47.4174 -121.2880 293° West 480 552 38,000  Level FlightAware ADS-B
Fri 04:56:13 PM 47.4435 -121.3810 293° West 481 554 38,000  Level FlightAware ADS-B
Fri 04:56:43 PM 47.4693 -121.4720 293° West 484 557 38,000  Level FlightAware ADS-B
Fri 04:57:13 PM 47.4949 -121.5630 293° West 485 558 38,000  Level FlightAware ADS-B
Fri 04:57:44 PM 47.5209 -121.6560 293° West 484 557 38,000  Level FlightAware ADS-B
Fri 04:58:14 PM 47.5467 -121.7490 292° West 486 559 38,000  Level FlightAware ADS-B
Fri 04:58:44 PM 47.5722 -121.8410 292° West 485 558 38,000  Level FlightAware ADS-B
Fri 04:59:14 PM 47.5975 -121.9330 292° West 482 555 38,000  Level FlightAware ADS-B
Fri 04:59:44 PM 47.6227 -122.0240 292° West 479 551 38,000  Level FlightAware ADS-B
Fri 05:00:15 PM 47.6480 -122.1170 292° West 479 551 38,000  Level FlightAware ADS-B
Fri 05:00:45 PM 47.6738 -122.2100 292° West 480 552 38,000  Level FlightAware ADS-B
Fri 05:01:16 PM 47.6988 -122.3020 292° West 479 551 38,000  Level FlightAware ADS-B
Fri 05:01:46 PM 47.7237 -122.3940 292° West 481 554 38,000  Level FlightAware ADS-B
Fri 05:02:16 PM 47.7489 -122.4880 292° West 479 551 38,000  Level FlightAware ADS-B
Fri 05:02:47 PM 47.7737 -122.5800 292° West 479 551 38,000  Level FlightAware ADS-B
Fri 05:03:17 PM 47.7984 -122.6720 292° West 479 551 38,000  Level FlightAware ADS-B
Fri 05:03:49 PM 47.8243 -122.7690 292° West 481 554 38,000  Level FlightAware ADS-B
Fri 05:04:19 PM 47.8488 -122.8610 292° West 476 548 38,000  Level FlightAware ADS-B
Fri 05:04:49 PM 47.8731 -122.9530 292° West 476 548 38,000  Level FlightAware ADS-B
Fri 05:05:22 PM 47.8991 -123.0510 292° West 475 547 38,000  Level FlightAware ADS-B
Fri 05:05:52 PM 47.9230 -123.1430 291° West 476 548 38,000  Level FlightAware ADS-B
Fri 05:06:27 PM 47.9511 -123.2510 291° West 477 549 38,000  Level FlightAware ADS-B
Fri 05:06:58 PM 47.9706 -123.3470 287° West 473 544 38,000  Level FlightAware ADS-B
Fri 05:07:28 PM 47.9853 -123.4430 283° West 472 543 38,000  Level FlightAware ADS-B
Fri 05:07:58 PM 48.0001 -123.5380 283° West 475 547 38,000  Level FlightAware ADS-B
Fri 05:08:28 PM 48.0148 -123.6340 283° West 477 549 38,000  Level FlightAware ADS-B
Fri 05:08:59 PM 48.0298 -123.7310 283° West 479 551 38,000  Level FlightAware ADS-B
Fri 05:09:29 PM 48.0449 -123.8310 283° West 481 554 38,000  Level FlightAware ADS-B
Fri 05:09:59 PM 48.0596 -123.9280 283° West 482 555 38,000  Level FlightAware ADS-B
Fri 05:10:30 PM 48.0742 -124.0260 283° West 482 555 38,000  Level FlightAware ADS-B
Fri 05:11:00 PM 48.0886 -124.1230 283° West 478 550 38,000  Level FlightAware ADS-B
Fri 05:11:30 PM 48.1029 -124.2210 282° West 477 549 38,000  Level FlightAware ADS-B
Fri 05:12:00 PM 48.1171 -124.3180 282° West 479 551 38,000  Level FlightAware ADS-B
Fri 05:12:31 PM 48.1315 -124.4160 282° West 481 554 38,000  Level FlightAware ADS-B
Fri 05:13:01 PM 48.1459 -124.5150 282° West 479 551 38,000  Level FlightAware ADS-B
Fri 05:13:31 PM 48.1599 -124.6120 282° West 479 551 38,000  Level FlightAware ADS-B
Fri 05:14:02 PM 48.1740 -124.7100 282° West 479 551 38,000  Level FlightAware ADS-B
Fri 05:14:33 PM 48.1883 -124.8110 282° West 479 551 38,000  Level FlightAware ADS-B
Fri 05:15:03 PM 48.2020 -124.9080 282° West 476 548 38,000  Level FlightAware ADS-B
Fri 05:15:33 PM 48.2157 -125.0060 282° West 476 548 38,000  Level FlightAware ADS-B
Fri 05:16:04 PM 48.2294 -125.1050 282° West 477 549 38,000  Level FlightAware ADS-B
Fri 05:16:34 PM 48.2429 -125.2020 282° West 478 550 38,000  Level FlightAware ADS-B
Fri 05:17:17 PM 48.2619 -125.3410 282° West 477 549 38,000  Level FlightAware ADS-B
Fri 05:17:50 PM 48.2760 -125.4450 282° West 475 547 38,000  Level FlightAware ADS-B
Fri 05:18:26 PM 48.2920 -125.5630 282° West 476 548 38,000  Level FlightAware ADS-B
Fri 05:18:39 PM 48.2978 -125.6050 282° West 476 548 38,000  Level FlightAware ADS-B
Fri 05:19:34 PM 48.3210 -125.7810 281° West 478 550 38,000  Level FlightAware ADS-B
Fri 05:20:08 PM 48.3360 -125.8930 281° West 476 548 38,000  Level FlightAware ADS-B
Fri 05:20:45 PM 48.3510 -126.0100 281° West 477 549 38,000  Level FlightAware ADS-B
Fri 05:21:16 PM 48.3640 -126.1090 281° West 477 549 38,000  Level FlightAware ADS-B
Fri 05:21:56 PM 48.3810 -126.2420 281° West 477 549 38,000  Level FlightAware ADS-B
Fri 05:22:24 PM 48.3930 -126.3350 281° West 477 549 38,000  Level FlightAware ADS-B
Fri 05:23:04 PM 48.4090 -126.4640 281° West 479 551 38,000  Level FlightAware ADS-B
Fri 05:23:39 PM 48.4240 -126.5760 281° West 479 551 38,000  Level FlightAware ADS-B
Fri 05:24:10 PM 48.4360 -126.6770 280° West 480 552 38,000  Level FlightAware ADS-B
Fri 05:24:49 PM 48.4520 -126.8030 281° West 477 549 38,000  Level FlightAware ADS-B
Fri 05:25:22 PM 48.4650 -126.9150 280° West 478 550 38,000  Level FlightAware ADS-B
Fri 05:26:02 PM 48.4810 -127.0410 281° West 478 550 38,000  Level FlightAware ADS-B
Fri 05:26:39 PM 48.4940 -127.1450 281° West 478 550 38,000  Level FlightAware ADS-B
Fri 05:27:16 PM 48.5100 -127.2850 280° West 480 552 38,000  Level FlightAware ADS-B
Fri 05:28:11 PM 48.5280 -127.4440 280° West 480 552 38,000  Level FlightAware ADS-B
Fri 05:29:37 PM 48.5640 -127.7480 280° West 481 554 38,000  Level FlightAware ADS-B
Fri 05:30:15 PM 48.5760 -127.8550 280° West 481 554 38,000  Level FlightAware ADS-B
Fri 05:30:46 PM 48.5900 -127.9810 280° West 479 551 38,000  Level FlightAware ADS-B
Fri 05:31:18 PM 48.6020 -128.0840 280° West 478 550 38,000  Level FlightAware ADS-B
Fri 05:31:53 PM 48.6120 -128.1850 279° West 478 550 38,000  Level FlightAware ADS-B
Fri 05:32:30 PM 48.6230 -128.2890 279° West 478 550 38,000  Level FlightAware ADS-B
Fri 05:33:08 PM 48.6340 -128.3960 279° West 478 550 38,000  Level FlightAware ADS-B
Fri 05:33:44 PM 48.6450 -128.4970 279° West 478 550 38,000  Level FlightAware ADS-B
Fri 05:34:20 PM 48.6550 -128.5980 279° West 478 550 38,000  Level FlightAware ADS-B
Fri 05:34:56 PM 48.6660 -128.6990 279° West 478 550 38,000  Level FlightAware ADS-B
Fri 05:35:32 PM 48.6770 -128.8000 279° West 478 550 38,000  Level FlightAware ADS-B
Fri 05:36:08 PM 48.6870 -128.9020 278° West 478 550 38,000  Level FlightAware ADS-B
Fri 05:36:44 PM 48.6980 -129.0030 279° West 478 550 38,000  Level FlightAware ADS-B
Fri 05:37:20 PM 48.7080 -129.1040 279° West 478 550 38,000  Level FlightAware ADS-B
Fri 05:37:57 PM 48.7190 -129.2080 279° West 478 550 38,000  Level FlightAware ADS-B
Fri 05:38:31 PM 48.7290 -129.3040 279° West 478 550 38,000  Level FlightAware ADS-B
Fri 05:39:07 PM 48.7400 -129.4050 279° West 478 550 38,000  Level FlightAware ADS-B
Fri 05:39:45 PM 48.7510 -129.5120 279° West 478 550 38,000  Level FlightAware ADS-B
Fri 05:40:19 PM 48.7610 -129.6080 279° West 478 550 38,000  Level FlightAware ADS-B
Fri 05:40:58 PM 48.7720 -129.7180 279° West 478 550 38,000  Level FlightAware ADS-B
Fri 05:41:55 PM 48.8000 -130.1833 279° West 480 552 38,000  Level Vancouver Center
Fri 05:42:55 PM 48.8167 -130.4167 276° West 480 552 38,000  Level Vancouver Center
Fri 05:43:55 PM 48.8333 -130.6000 278° West 480 552 38,000  Level Vancouver Center
Fri 05:44:55 PM 48.8500 -130.8000 277° West 480 552 38,000  Level Vancouver Center
Fri 05:45:55 PM 48.8667 -131.0167 277° West 480 552 38,000  Level Vancouver Center
Fri 05:46:55 PM 48.8833 -131.2167 277° West 470 541 38,000  Level Vancouver Center
Fri 05:47:55 PM 48.9000 -131.4000 278° West 480 552 38,000  Level Vancouver Center
Fri 05:48:55 PM 48.9167 -131.6000 277° West 480 552 38,000  Level Vancouver Center
Fri 05:49:55 PM 48.9167 -131.8167 270° West 480 552 38,000  Level Vancouver Center
Fri 05:50:55 PM 48.9333 -131.9833 279° West 470 541 38,000  Level Vancouver Center
Fri 05:52:00 PM 48.9568 -132.1929 280° West  Level FlightAware Approximate
Fri 05:53:17 PM 49.0000 -132.4500 273° West 481 554 38,000  Level Oakland Oceanic (ODAPS)
Fri 05:57:52 PM 49.0333 -133.3833 272° West 481 554 38,000  Level Oakland Oceanic (ODAPS)
Fri 05:59:00 PM 49.0335 -133.6732 272° West 481 554 38,000  Level FlightAware Transoceanic
Fri 06:00:00 PM 49.0378 -133.8772 272° West 481 554 38,000  Level FlightAware Transoceanic
Fri 06:01:00 PM 49.0418 -134.0812 272° West 481 554 38,000  Level FlightAware Transoceanic
Fri 06:02:00 PM 49.0453 -134.2853 271° West 481 554 38,000  Level FlightAware Transoceanic
Fri 06:03:00 PM 49.0486 -134.4894 271° West 481 554 38,000  Level FlightAware Transoceanic
Fri 06:04:00 PM 49.0559 -134.6238 271° West 481 554 38,000  Level FlightAware Transoceanic
Fri 06:05:00 PM 49.0584 -134.8307 271° West 481 554 38,000  Level FlightAware Transoceanic
Fri 06:06:00 PM 49.0605 -135.0375 271° West 481 554 38,000  Level FlightAware Transoceanic
Fri 06:07:00 PM 49.0622 -135.2444 271° West 481 554 38,000  Level FlightAware Transoceanic
Fri 06:08:00 PM 49.0636 -135.4513 270° West 481 554 38,000  Level FlightAware Transoceanic
Fri 06:09:00 PM 49.0646 -135.6582 270° West 481 554 38,000  Level FlightAware Transoceanic
Fri 06:10:00 PM 49.0652 -135.8651 270° West 481 554 38,000  Level FlightAware Transoceanic
Fri 06:11:00 PM 49.0654 -136.0720 270° West 481 554 38,000  Level FlightAware Transoceanic
Fri 06:11:46 PM 49.0667 -136.1833 270° West 485 558 38,000  Level Oakland Oceanic (ODAPS)
Fri 06:12:00 PM 49.0653 -136.2790 270° West 481 554 38,000  Level FlightAware Transoceanic
Fri 06:13:00 PM 49.0648 -136.4859 270° West 481 554 38,000  Level FlightAware Transoceanic
Fri 06:14:00 PM 49.0640 -136.6928 270° West 481 554 38,000  Level FlightAware Transoceanic
Fri 06:15:00 PM 49.0628 -136.8997 269° West 481 554 38,000  Level FlightAware Transoceanic
Fri 06:16:00 PM 49.0611 -137.1066 269° West 481 554 38,000  Level FlightAware Transoceanic
Fri 06:17:00 PM 49.0608 -137.2444 269° West 485 558 38,000  Level FlightAware Transoceanic
Fri 06:17:39 PM 49.0500 -137.3833 269° West 484 557 38,000  Level Oakland Oceanic (ODAPS)
Fri 06:18:00 PM 49.0584 -137.4566 269° West 485 558 38,000  Level FlightAware Transoceanic
Fri 06:19:00 PM 49.0557 -137.6687 269° West 485 558 38,000  Level FlightAware Transoceanic
Fri 06:20:00 PM 49.0526 -137.8808 269° West 485 558 38,000  Level FlightAware Transoceanic
Fri 06:21:00 PM 49.0491 -138.0930 268° West 485 558 38,000  Level FlightAware Transoceanic
Fri 06:22:00 PM 49.0452 -138.3050 268° West 485 558 38,000  Level FlightAware Transoceanic
Fri 06:23:00 PM 49.0409 -138.5170 268° West 485 558 38,000  Level FlightAware Transoceanic
Fri 06:24:00 PM 49.0304 -138.7930 268° West 484 557 38,000  Level FlightAware Transoceanic
Fri 06:25:00 PM 49.0262 -138.9942 268° West 484 557 38,000  Level FlightAware Transoceanic
Fri 06:25:41 PM 49.0333 -139.0167 267° West 480 552 38,000  Level Oakland Oceanic (ODAPS)
Fri 06:26:00 PM 49.0217 -139.1955 268° West 484 557 38,000  Level FlightAware Transoceanic
Fri 06:27:00 PM 49.0168 -139.3967 268° West 484 557 38,000  Level FlightAware Transoceanic
Fri 06:28:00 PM 49.0115 -139.5978 268° West 484 557 38,000  Level FlightAware Transoceanic
Fri 06:29:00 PM 49.0060 -139.7989 267° West 484 557 38,000  Level FlightAware Transoceanic
Fri 06:30:00 PM 49.0000 -140.0000 274° West 484 557 38,000  Level FlightAware Transoceanic
Fri 06:30:29 PM 49.0000 -140.0000 274° West 479 551 38,000  Level Oakland Oceanic (ODAPS)
Fri 06:31:00 PM 49.0085 -140.1995 274° West 480 552 38,000  Level FlightAware Transoceanic
Fri 06:32:00 PM 49.0166 -140.3990 273° West 480 552 38,000  Level FlightAware Transoceanic
Fri 06:33:00 PM 49.0244 -140.5986 273° West 480 552 38,000  Level FlightAware Transoceanic
Fri 06:34:00 PM 49.0318 -140.7982 273° West 480 552 38,000  Level FlightAware Transoceanic
Fri 06:35:00 PM 49.0389 -140.9979 273° West 480 552 38,000  Level FlightAware Transoceanic
Fri 06:36:00 PM 49.0456 -141.1977 273° West 479 551 38,000  Level FlightAware Transoceanic
Fri 06:37:00 PM 49.0520 -141.3975 273° West 479 551 38,000  Level FlightAware Transoceanic
Fri 06:38:00 PM 49.0581 -141.5974 273° West 479 551 38,000  Level FlightAware Transoceanic
Fri 06:39:00 PM 49.0638 -141.7973 272° West 479 551 38,000  Level FlightAware Transoceanic
Fri 06:39:29 PM 49.0667 -141.8167 272° West 479 551 38,000  Level Oakland Oceanic (ODAPS)
Fri 06:40:00 PM 49.0692 -141.9972 272° West 479 551 38,000  Level FlightAware Transoceanic
Fri 06:41:00 PM 49.0742 -142.1972 272° West 479 551 38,000  Level FlightAware Transoceanic
Fri 06:42:00 PM 49.0789 -142.3972 272° West 479 551 38,000  Level FlightAware Transoceanic
Fri 06:43:00 PM 49.0832 -142.5973 272° West 479 551 38,000  Level FlightAware Transoceanic
Fri 06:44:00 PM 49.0872 -142.7974 272° West 479 551 38,000  Level FlightAware Transoceanic
Fri 06:45:00 PM 49.0931 -143.0142 271° West 479 551 38,000  Level FlightAware Transoceanic
Fri 06:46:00 PM 49.0963 -143.2139 271° West 479 551 38,000  Level FlightAware Transoceanic
Fri 06:47:00 PM 49.0991 -143.4136 271° West 479 551 38,000  Level FlightAware Transoceanic
Fri 06:48:00 PM 49.1016 -143.6134 271° West 479 551 38,000  Level FlightAware Transoceanic
Fri 06:49:00 PM 49.1038 -143.8131 271° West 479 551 38,000  Level FlightAware Transoceanic
Fri 06:50:00 PM 49.1056 -144.0129 271° West 479 551 38,000  Level FlightAware Transoceanic
Fri 06:51:00 PM 49.1071 -144.2127 271° West 479 551 38,000  Level FlightAware Transoceanic
Fri 06:52:00 PM 49.1082 -144.4125 270° West 479 551 38,000  Level FlightAware Transoceanic
Fri 06:53:00 PM 49.1090 -144.6123 270° West 479 551 38,000  Level FlightAware Transoceanic
Fri 06:53:22 PM 49.1000 -144.5500 270° West 466 536 38,000  Level Oakland Oceanic (ODAPS)
Fri 06:54:00 PM 49.1095 -144.8121 270° West 479 551 38,000  Level FlightAware Transoceanic
Fri 06:55:00 PM 49.1096 -145.0119 270° West 479 551 38,000  Level FlightAware Transoceanic
Fri 06:56:00 PM 49.1093 -145.2118 270° West 479 551 38,000  Level FlightAware Transoceanic
Fri 06:57:00 PM 49.1087 -145.4116 270° West 479 551 38,000  Level FlightAware Transoceanic
Fri 06:58:00 PM 49.1078 -145.6114 270° West 479 551 38,000  Level FlightAware Transoceanic
Fri 06:59:00 PM 49.1002 -145.7193 270° West 466 536 38,000  Level FlightAware Transoceanic
Fri 07:00:00 PM 49.0991 -145.9141 269° West 466 536 38,000  Level FlightAware Transoceanic
Fri 07:01:00 PM 49.0976 -146.1090 269° West 466 536 38,000  Level FlightAware Transoceanic
Fri 07:02:00 PM 49.0959 -146.3038 269° West 466 536 38,000  Level FlightAware Transoceanic
Fri 07:03:00 PM 49.0938 -146.4986 269° West 466 536 38,000  Level FlightAware Transoceanic
Fri 07:04:00 PM 49.0913 -146.6935 269° West 466 536 38,000  Level FlightAware Transoceanic
Fri 07:05:00 PM 49.0886 -146.8882 269° West 466 536 38,000  Level FlightAware Transoceanic
Fri 07:06:00 PM 49.0855 -147.0830 269° West 466 536 38,000  Level FlightAware Transoceanic
Fri 07:07:00 PM 49.0821 -147.2777 268° West 466 536 38,000  Level FlightAware Transoceanic
Fri 07:07:14 PM 49.0833 -147.2667 268° West 457 526 38,000  Level Oakland Oceanic (ODAPS)
Fri 07:08:00 PM 49.0784 -147.4724 268° West 466 536 38,000  Level FlightAware Transoceanic
Fri 07:09:00 PM 49.0743 -147.6671 268° West 466 536 38,000  Level FlightAware Transoceanic
Fri 07:10:00 PM 49.0699 -147.8618 268° West 466 536 38,000  Level FlightAware Transoceanic
Fri 07:11:00 PM 49.0652 -148.0564 268° West 466 536 38,000  Level FlightAware Transoceanic
Fri 07:12:00 PM 49.0601 -148.2510 268° West 466 536 38,000  Level FlightAware Transoceanic
Fri 07:13:00 PM 49.0555 -148.4392 267° West 457 526 38,000  Level FlightAware Transoceanic
Fri 07:14:00 PM 49.0497 -148.6345 267° West 457 526 38,000  Level FlightAware Transoceanic
Fri 07:15:00 PM 49.0436 -148.8297 267° West 457 526 38,000  Level FlightAware Transoceanic
Fri 07:15:12 PM 49.0500 -148.8167 267° West 460 529 38,000  Level Oakland Oceanic (ODAPS)
Fri 07:16:00 PM 49.0372 -149.0249 267° West 457 526 38,000  Level FlightAware Transoceanic
Fri 07:17:00 PM 49.0304 -149.2200 267° West 457 526 38,000  Level FlightAware Transoceanic
Fri 07:18:00 PM 49.0233 -149.4151 267° West 457 526 38,000  Level FlightAware Transoceanic
Fri 07:19:00 PM 49.0159 -149.6101 267° West 457 526 38,000  Level FlightAware Transoceanic
Fri 07:20:00 PM 49.0081 -149.8051 266° West 457 526 38,000  Level FlightAware Transoceanic
Fri 07:21:00 PM 49.0000 -150.0000 265° West 460 529 38,000 1,636 Level FlightAware Transoceanic
Fri 07:21:06 PM 49.0000 -149.9667 270° West 498 573 39,800 6,316 Climbing Oakland Oceanic (ODAPS)
Fri 07:21:19 PM 49.0000 -150.0000 265° West 473 544 40,000 -2,000 Climbing Oakland Oceanic (ODAPS)
Fri 07:22:00 PM 48.9886 -150.2034 265° West 460 529 38,000 -1,188 Descending FlightAware Transoceanic
Fri 07:23:00 PM 48.9768 -150.4066 265° West 460 529 38,000  Level FlightAware Transoceanic
Fri 07:24:00 PM 48.9647 -150.6098 265° West 460 529 38,000  Level FlightAware Transoceanic
Fri 07:25:00 PM 48.9522 -150.8129 265° West 460 529 38,000  Level FlightAware Transoceanic
Fri 07:26:00 PM 48.9394 -151.0159 264° West 460 529 38,000 1,000 Level FlightAware Transoceanic
Fri 07:27:00 PM 48.9277 -151.1949 264° West 473 544 40,000 1,000 Climbing FlightAware Transoceanic
Fri 07:28:00 PM 48.9145 -151.3937 264° West 473 544 40,000  Level FlightAware Transoceanic
Fri 07:29:00 PM 48.9009 -151.5923 264° West 473 544 40,000  Level FlightAware Transoceanic
Fri 07:30:00 PM 48.8870 -151.7909 264° West 473 544 40,000  Level FlightAware Transoceanic
Fri 07:31:00 PM 48.8727 -151.9894 264° West 473 544 40,000  Level FlightAware Transoceanic
Fri 07:32:00 PM 48.8581 -152.1877 264° West 473 544 40,000  Level FlightAware Transoceanic
Fri 07:33:00 PM 48.8432 -152.3860 263° West 473 544 40,000  Level FlightAware Transoceanic
Fri 07:34:00 PM 48.8279 -152.5841 263° West 473 544 40,000  Level FlightAware Transoceanic
Fri 07:34:58 PM 48.8167 -152.7000 263° West 470 541 40,000  Level Oakland Oceanic (ODAPS)
Fri 07:35:00 PM 48.8123 -152.7821 263° West 473 544 40,000  Level FlightAware Transoceanic
Fri 07:36:00 PM 48.7963 -152.9800 263° West 473 544 40,000  Level FlightAware Transoceanic
Fri 07:37:00 PM 48.7800 -153.1777 263° West 473 544 40,000  Level FlightAware Transoceanic
Fri 07:38:00 PM 48.7634 -153.3753 263° West 473 544 40,000  Level FlightAware Transoceanic
Fri 07:39:00 PM 48.7464 -153.5728 262° West 473 544 40,000  Level FlightAware Transoceanic
Fri 07:40:00 PM 48.7291 -153.7702 262° West 473 544 40,000  Level FlightAware Transoceanic
Fri 07:41:00 PM 48.7186 -153.8673 262° West 470 541 40,000  Level FlightAware Transoceanic
Fri 07:42:00 PM 48.7011 -154.0614 262° West 470 541 40,000  Level FlightAware Transoceanic
Fri 07:43:00 PM 48.6833 -154.2554 262° West 470 541 40,000  Level FlightAware Transoceanic
Fri 07:44:00 PM 48.6652 -154.4492 262° West 470 541 40,000  Level FlightAware Transoceanic
Fri 07:45:00 PM 48.6468 -154.6429 262° West 470 541 40,000  Level FlightAware Transoceanic
Fri 07:46:00 PM 48.6280 -154.8364 262° West 470 541 40,000  Level FlightAware Transoceanic
Fri 07:47:00 PM 48.6089 -155.0298 261° West 470 541 40,000  Level FlightAware Transoceanic
Fri 07:48:00 PM 48.5894 -155.2231 261° West 470 541 40,000  Level FlightAware Transoceanic
Fri 07:48:50 PM 48.5667 -155.4000 261° West 469 540 40,000  Level Oakland Oceanic (ODAPS)
Fri 07:49:00 PM 48.5697 -155.4162 261° West 470 541 40,000  Level FlightAware Transoceanic
Fri 07:50:00 PM 48.5496 -155.6091 261° West 470 541 40,000  Level FlightAware Transoceanic
Fri 07:51:00 PM 48.5292 -155.8019 261° West 470 541 40,000  Level FlightAware Transoceanic
Fri 07:52:00 PM 48.5085 -155.9946 261° West 470 541 40,000  Level FlightAware Transoceanic
Fri 07:53:00 PM 48.4874 -156.1870 261° West 470 541 40,000  Level FlightAware Transoceanic
Fri 07:54:00 PM 48.4661 -156.3793 260° West 470 541 40,000  Level FlightAware Transoceanic
Fri 07:55:00 PM 48.4423 -156.5594 260° West 469 540 40,000  Level FlightAware Transoceanic
Fri 07:56:00 PM 48.4204 -156.7520 260° West 469 540 40,000  Level FlightAware Transoceanic
Fri 07:57:00 PM 48.3982 -156.9445 260° West 469 540 40,000  Level FlightAware Transoceanic
Fri 07:58:00 PM 48.3757 -157.1368 260° West 469 540 40,000  Level FlightAware Transoceanic
Fri 07:59:00 PM 48.3529 -157.3290 260° West 469 540 40,000  Level FlightAware Transoceanic
Fri 08:00:00 PM 48.3297 -157.5210 260° West 469 540 40,000  Level FlightAware Transoceanic
Fri 08:01:00 PM 48.3063 -157.7128 260° West 469 540 40,000  Level FlightAware Transoceanic
Fri 08:02:00 PM 48.2825 -157.9044 259° West 469 540 40,000  Level FlightAware Transoceanic
Fri 08:02:42 PM 48.2667 -158.0667 259° West 471 542 40,000  Level Oakland Oceanic (ODAPS)
Fri 08:03:00 PM 48.2584 -158.0958 259° West 469 540 40,000  Level FlightAware Transoceanic
Fri 08:04:00 PM 48.2340 -158.2871 259° West 469 540 40,000  Level FlightAware Transoceanic
Fri 08:05:00 PM 48.2092 -158.4782 259° West 469 540 40,000  Level FlightAware Transoceanic
Fri 08:06:00 PM 48.1842 -158.6691 259° West 469 540 40,000  Level FlightAware Transoceanic
Fri 08:07:00 PM 48.1588 -158.8598 259° West 469 540 40,000  Level FlightAware Transoceanic
Fri 08:08:00 PM 48.1331 -159.0503 259° West 469 540 40,000  Level FlightAware Transoceanic
Fri 08:09:00 PM 48.1106 -159.2291 258° West 471 542 40,000  Level FlightAware Transoceanic
Fri 08:10:00 PM 48.0834 -159.4221 258° West 471 542 40,000  Level FlightAware Transoceanic
Fri 08:11:00 PM 48.0559 -159.6150 258° West 471 542 40,000  Level FlightAware Transoceanic
Fri 08:12:00 PM 48.0281 -159.8076 258° West 471 542 40,000  Level FlightAware Transoceanic
Fri 08:13:00 PM 48.0000 -160.0000 257° West 471 542 40,000  Level FlightAware Transoceanic
Fri 08:14:00 PM 47.9699 -160.1990 257° West 471 542 40,000  Level FlightAware Transoceanic
Fri 08:15:00 PM 47.9395 -160.3978 257° West 471 542 40,000  Level FlightAware Transoceanic
Fri 08:16:00 PM 47.9088 -160.5964 257° West 471 542 40,000  Level FlightAware Transoceanic
Fri 08:17:00 PM 47.8777 -160.7947 257° West 471 542 40,000  Level FlightAware Transoceanic
Fri 08:18:00 PM 47.8463 -160.9928 257° West 471 542 40,000  Level FlightAware Transoceanic
Fri 08:19:00 PM 47.8145 -161.1906 256° West 471 542 40,000  Level FlightAware Transoceanic
Fri 08:19:29 PM 48.0000 -160.0000 257° West 479 551 40,000  Level Oakland Oceanic (ODAPS)
Fri 08:20:00 PM 47.7824 -161.3882 256° West 471 542 40,000  Level FlightAware Transoceanic
Fri 08:21:00 PM 47.7499 -161.5856 256° West 471 542 40,000  Level FlightAware Transoceanic
Fri 08:22:00 PM 47.7172 -161.7827 256° West 471 542 40,000  Level FlightAware Transoceanic
Fri 08:23:00 PM 47.6840 -161.9795 256° West 471 542 40,000  Level FlightAware Transoceanic
Fri 08:24:00 PM 47.6506 -162.1761 256° West 471 542 40,000  Level FlightAware Transoceanic
Fri 08:25:00 PM 47.6245 -162.3280 256° West 479 551 40,000  Level FlightAware Transoceanic
Fri 08:26:00 PM 47.5910 -162.5205 255° West 479 551 40,000  Level FlightAware Transoceanic
Fri 08:27:00 PM 47.5573 -162.7127 255° West 479 551 40,000  Level FlightAware Transoceanic
Fri 08:28:00 PM 47.5233 -162.9047 255° West 479 551 40,000  Level FlightAware Transoceanic
Fri 08:29:00 PM 47.4889 -163.0964 255° West 479 551 40,000  Level FlightAware Transoceanic
Fri 08:30:00 PM 47.4542 -163.2879 255° West 479 551 40,000  Level FlightAware Transoceanic
Fri 08:31:00 PM 47.4192 -163.4790 255° West 479 551 40,000  Level FlightAware Transoceanic
Fri 08:31:37 PM 47.4333 -163.3667 255° West 476 548 40,000  Level Oakland Oceanic (ODAPS)
Fri 08:32:00 PM 47.3839 -163.6700 255° West 479 551 40,000  Level FlightAware Transoceanic
Fri 08:33:00 PM 47.3482 -163.8607 255° West 479 551 40,000  Level FlightAware Transoceanic
Fri 08:34:00 PM 47.3123 -164.0511 254° West 479 551 40,000  Level FlightAware Transoceanic
Fri 08:35:00 PM 47.2760 -164.2413 254° West 479 551 40,000  Level FlightAware Transoceanic
Fri 08:36:00 PM 47.2394 -164.4312 254° West 479 551 40,000  Level FlightAware Transoceanic
Fri 08:37:00 PM 47.2025 -164.6209 254° West 479 551 40,000  Level FlightAware Transoceanic
Fri 08:38:00 PM 47.1483 -164.8707 254° West 476 548 40,000  Level FlightAware Transoceanic
Fri 08:39:00 PM 47.1113 -165.0576 254° West 476 548 40,000  Level FlightAware Transoceanic
Fri 08:40:00 PM 47.0739 -165.2442 254° West 476 548 40,000  Level FlightAware Transoceanic
Fri 08:41:00 PM 47.0363 -165.4305 253° West 476 548 40,000  Level FlightAware Transoceanic
Fri 08:42:00 PM 46.9984 -165.6166 253° West 476 548 40,000  Level FlightAware Transoceanic
Fri 08:43:00 PM 46.9602 -165.8024 253° West 476 548 40,000  Level FlightAware Transoceanic
Fri 08:44:00 PM 46.9217 -165.9880 253° West 476 548 40,000  Level FlightAware Transoceanic
Fri 08:45:00 PM 46.8828 -166.1732 253° West 476 548 40,000  Level FlightAware Transoceanic
Fri 08:45:04 PM 46.9333 -165.9333 253° West 472 543 40,000  Level Oakland Oceanic (ODAPS)
Fri 08:46:00 PM 46.8437 -166.3582 253° West 476 548 40,000  Level FlightAware Transoceanic
Fri 08:47:00 PM 46.8043 -166.5430 253° West 476 548 40,000  Level FlightAware Transoceanic
Fri 08:48:00 PM 46.7646 -166.7274 252° West 476 548 40,000  Level FlightAware Transoceanic
Fri 08:49:00 PM 46.7246 -166.9116 252° West 476 548 40,000  Level FlightAware Transoceanic
Fri 08:50:00 PM 46.6843 -167.0955 252° West 476 548 40,000  Level FlightAware Transoceanic
Fri 08:51:00 PM 46.6646 -167.1857 252° West 472 543 40,000  Level FlightAware Transoceanic
Fri 08:52:00 PM 46.6251 -167.3636 252° West 472 543 40,000  Level FlightAware Transoceanic
Fri 08:53:00 PM 46.5853 -167.5412 252° West 472 543 40,000  Level FlightAware Transoceanic
Fri 08:54:00 PM 46.5453 -167.7186 252° West 472 543 40,000  Level FlightAware Transoceanic
Fri 08:55:00 PM 46.5050 -167.8957 252° West 472 543 40,000  Level FlightAware Transoceanic
Fri 08:56:00 PM 46.4644 -168.0725 251° West 472 543 40,000  Level FlightAware Transoceanic
Fri 08:57:00 PM 46.4235 -168.2491 251° West 472 543 40,000  Level FlightAware Transoceanic
Fri 08:58:00 PM 46.3823 -168.4254 251° West 472 543 40,000  Level FlightAware Transoceanic
Fri 08:59:00 PM 46.3409 -168.6014 251° West 472 543 40,000  Level FlightAware Transoceanic
Fri 08:59:15 PM 46.3833 -168.4500 251° West 480 552 40,000  Level Oakland Oceanic (ODAPS)
Fri 09:00:00 PM 46.2993 -168.7772 251° West 472 543 40,000  Level FlightAware Transoceanic
Fri 09:01:00 PM 46.2573 -168.9527 251° West 472 543 40,000  Level FlightAware Transoceanic
Fri 09:02:00 PM 46.2151 -169.1279 251° West 472 543 40,000  Level FlightAware Transoceanic
Fri 09:03:00 PM 46.1726 -169.3029 251° West 472 543 40,000  Level FlightAware Transoceanic
Fri 09:04:00 PM 46.1298 -169.4776 250° West 472 543 40,000  Level FlightAware Transoceanic
Fri 09:05:00 PM 46.0870 -169.6574 250° West 480 552 40,000  Level FlightAware Transoceanic
Fri 09:06:00 PM 46.0436 -169.8289 250° West 480 552 40,000  Level FlightAware Transoceanic
Fri 09:07:00 PM 46.0000 -170.0000 265° West 480 552 40,000  Level FlightAware Transoceanic
Fri 09:07:52 PM 45.9833 -170.2000 265° West 493 567 40,000  Level Oakland Oceanic (ODAPS)
Fri 09:08:00 PM 45.9891 -170.1952 265° West 480 552 40,000  Level FlightAware Transoceanic
Fri 09:09:00 PM 45.9779 -170.3904 265° West 480 552 40,000  Level FlightAware Transoceanic
Fri 09:10:00 PM 45.9663 -170.5854 265° West 480 552 40,000  Level FlightAware Transoceanic
Fri 09:11:00 PM 45.9544 -170.7804 265° West 480 552 40,000  Level FlightAware Transoceanic
Fri 09:12:00 PM 45.9421 -170.9753 265° West 480 552 40,000  Level FlightAware Transoceanic
Fri 09:12:03 PM 45.9333 -171.0167 265° West 478 550 40,000  Level Oakland Oceanic (ODAPS)
Fri 09:13:00 PM 45.9296 -171.1701 265° West 480 552 40,000  Level FlightAware Transoceanic
Fri 09:14:00 PM 45.9100 -171.3923 265° West 493 567 40,000  Level FlightAware Transoceanic
Fri 09:15:00 PM 45.8966 -171.5907 264° West 493 567 40,000  Level FlightAware Transoceanic
Fri 09:16:00 PM 45.8828 -171.7890 264° West 493 567 40,000  Level FlightAware Transoceanic
Fri 09:17:00 PM 45.8687 -171.9872 264° West 493 567 40,000  Level FlightAware Transoceanic
Fri 09:18:00 PM 45.8519 -172.2038 264° West 478 550 40,000  Level FlightAware Transoceanic
Fri 09:19:00 PM 45.8371 -172.4014 264° West 478 550 40,000  Level FlightAware Transoceanic
Fri 09:20:00 PM 45.8220 -172.5988 264° West 478 550 40,000  Level FlightAware Transoceanic
Fri 09:21:00 PM 45.8065 -172.7961 264° West 478 550 40,000  Level FlightAware Transoceanic
Fri 09:22:00 PM 45.7907 -172.9932 263° West 478 550 40,000  Level FlightAware Transoceanic
Fri 09:23:00 PM 45.7746 -173.1903 263° West 478 550 40,000  Level FlightAware Transoceanic
Fri 09:24:00 PM 45.7581 -173.3873 263° West 478 550 40,000  Level FlightAware Transoceanic
Fri 09:25:00 PM 45.7413 -173.5841 263° West 478 550 40,000  Level FlightAware Transoceanic
Fri 09:25:54 PM 45.7500 -173.6333 263° West 476 548 40,000  Level Oakland Oceanic (ODAPS)
Fri 09:26:00 PM 45.7242 -173.7808 263° West 478 550 40,000  Level FlightAware Transoceanic
Fri 09:27:00 PM 45.7067 -173.9774 263° West 478 550 40,000  Level FlightAware Transoceanic
Fri 09:28:00 PM 45.6889 -174.1739 263° West 478 550 40,000  Level FlightAware Transoceanic
Fri 09:29:00 PM 45.6707 -174.3703 262° West 478 550 40,000  Level FlightAware Transoceanic
Fri 09:30:00 PM 45.6522 -174.5665 262° West 478 550 40,000  Level FlightAware Transoceanic
Fri 09:31:00 PM 45.6334 -174.7626 262° West 478 550 40,000  Level FlightAware Transoceanic
Fri 09:32:00 PM 45.6401 -174.8029 262° West 476 548 40,000  Level FlightAware Transoceanic
Fri 09:33:00 PM 45.6206 -174.9974 262° West 476 548 40,000  Level FlightAware Transoceanic
Fri 09:34:00 PM 45.6008 -175.1917 262° West 476 548 40,000  Level FlightAware Transoceanic
Fri 09:35:00 PM 45.5807 -175.3859 262° West 476 548 40,000  Level FlightAware Transoceanic
Fri 09:36:00 PM 45.5602 -175.5800 261° West 476 548 40,000  Level FlightAware Transoceanic
Fri 09:37:00 PM 45.5394 -175.7739 261° West 476 548 40,000  Level FlightAware Transoceanic
Fri 09:38:00 PM 45.5183 -175.9677 261° West 476 548 40,000  Level FlightAware Transoceanic
Fri 09:39:00 PM 45.4969 -176.1613 261° West 476 548 40,000  Level FlightAware Transoceanic
Fri 09:39:45 PM 45.4833 -176.2167 261° West 480 552 40,000  Level Oakland Oceanic (ODAPS)
Fri 09:40:00 PM 45.4751 -176.3548 261° West 476 548 40,000  Level FlightAware Transoceanic
Fri 09:41:00 PM 45.4530 -176.5481 261° West 476 548 40,000  Level FlightAware Transoceanic
Fri 09:42:00 PM 45.4306 -176.7413 261° West 476 548 40,000  Level FlightAware Transoceanic
Fri 09:43:00 PM 45.4078 -176.9343 260° West 476 548 40,000  Level FlightAware Transoceanic
Fri 09:44:00 PM 45.3847 -177.1272 260° West 476 548 40,000  Level FlightAware Transoceanic
Fri 09:45:00 PM 45.3683 -177.2184 260° West 480 552 40,000  Level FlightAware Transoceanic
Fri 09:46:00 PM 45.3442 -177.4183 260° West 480 552 40,000  Level FlightAware Transoceanic
Fri 09:47:00 PM 45.3198 -177.6179 260° West 480 552 40,000  Level FlightAware Transoceanic
Fri 09:48:00 PM 45.2951 -177.8174 260° West 480 552 40,000  Level FlightAware Transoceanic
Fri 09:49:00 PM 45.2700 -178.0168 260° West 480 552 40,000  Level FlightAware Transoceanic
Fri 09:50:00 PM 45.2445 -178.2159 260° West 480 552 40,000  Level FlightAware Transoceanic
Fri 09:51:00 PM 45.2187 -178.4149 259° West 480 552 40,000  Level FlightAware Transoceanic
Fri 09:52:00 PM 45.1926 -178.6137 259° West 480 552 40,000  Level FlightAware Transoceanic
Fri 09:53:00 PM 45.1661 -178.8123 259° West 480 552 40,000  Level FlightAware Transoceanic
Fri 09:54:00 PM 45.1393 -179.0107 259° West 480 552 40,000  Level FlightAware Transoceanic
Fri 09:55:00 PM 45.1121 -179.2090 259° West 480 552 40,000  Level FlightAware Transoceanic
Fri 09:56:00 PM 45.0846 -179.4070 259° West 480 552 40,000  Level FlightAware Transoceanic
Fri 09:57:00 PM 45.0567 -179.6049 259° West 480 552 40,000  Level FlightAware Transoceanic
Fri 09:58:00 PM 45.0285 -179.8025 259° West 480 552 40,000  Level FlightAware Transoceanic
Fri 09:59:00 PM 45.0000 -180.0000 258° West 480 552 40,000  Level FlightAware Transoceanic
Fri 09:59:59 PM 45.0000 180.0000 258° West 479 551 40,000  Level Oakland Oceanic (ODAPS)
Fri 10:00:00 PM 44.9726 179.8190 258° West 480 552 40,000  Level FlightAware Transoceanic
Fri 10:01:00 PM 44.9449 179.6382 258° West 480 552 40,000  Level FlightAware Transoceanic
Fri 10:02:00 PM 44.9169 179.4576 258° West 480 552 40,000  Level FlightAware Transoceanic
Fri 10:03:00 PM 44.8887 179.2772 257° West 480 552 40,000  Level FlightAware Transoceanic
Fri 10:04:00 PM 44.8601 179.0970 257° West 480 552 40,000  Level FlightAware Transoceanic
Fri 10:05:00 PM 44.8313 178.9169 257° West 480 552 40,000  Level FlightAware Transoceanic
Fri 10:06:00 PM 44.8282 178.8976 257° West 479 551 40,000  Level FlightAware Transoceanic
Fri 10:07:00 PM 44.7985 178.7145 257° West 479 551 40,000  Level FlightAware Transoceanic
Fri 10:07:40 PM 44.7833 178.6000 257° West 473 544 40,000  Level Oakland Oceanic (ODAPS)
Fri 10:08:00 PM 44.7686 178.5316 257° West 479 551 40,000  Level FlightAware Transoceanic
Fri 10:09:00 PM 44.7383 178.3489 257° West 479 551 40,000  Level FlightAware Transoceanic
Fri 10:10:00 PM 44.7078 178.1664 257° West 479 551 40,000  Level FlightAware Transoceanic
Fri 10:11:00 PM 44.6770 177.9841 257° West 479 551 40,000  Level FlightAware Transoceanic
Fri 10:12:00 PM 44.6459 177.8019 256° West 479 551 40,000  Level FlightAware Transoceanic
Fri 10:13:00 PM 44.6039 177.5416 256° West 473 544 40,000  Level FlightAware Transoceanic
Fri 10:14:00 PM 44.5731 177.3659 256° West 473 544 40,000  Level FlightAware Transoceanic
Fri 10:15:00 PM 44.5420 177.1903 256° West 473 544 40,000  Level FlightAware Transoceanic
Fri 10:16:00 PM 44.5106 177.0149 256° West 473 544 40,000  Level FlightAware Transoceanic
Fri 10:17:00 PM 44.4789 176.8398 256° West 473 544 40,000  Level FlightAware Transoceanic
Fri 10:18:00 PM 44.4470 176.6648 256° West 473 544 40,000  Level FlightAware Transoceanic
Fri 10:19:00 PM 44.4148 176.4900 255° West 473 544 40,000  Level FlightAware Transoceanic
Fri 10:20:00 PM 44.3824 176.3154 255° West 473 544 40,000  Level FlightAware Transoceanic
Fri 10:21:00 PM 44.3496 176.1409 255° West 473 544 40,000  Level FlightAware Transoceanic
Fri 10:21:21 PM 44.3500 176.1500 255° West 466 536 40,000  Level Oakland Oceanic (ODAPS)
Fri 10:22:00 PM 44.3167 175.9667 255° West 473 544 40,000  Level FlightAware Transoceanic
Fri 10:23:00 PM 44.2834 175.7927 255° West 473 544 40,000  Level FlightAware Transoceanic
Fri 10:24:00 PM 44.2499 175.6189 255° West 473 544 40,000  Level FlightAware Transoceanic
Fri 10:25:00 PM 44.2161 175.4452 255° West 473 544 40,000  Level FlightAware Transoceanic
Fri 10:26:00 PM 44.1821 175.2718 255° West 473 544 40,000  Level FlightAware Transoceanic
Fri 10:27:00 PM 44.1481 175.1061 255° West 466 536 40,000  Level FlightAware Transoceanic
Fri 10:28:00 PM 44.1136 174.9328 254° West 466 536 40,000  Level FlightAware Transoceanic
Fri 10:29:00 PM 44.0788 174.7598 254° West 466 536 40,000  Level FlightAware Transoceanic
Fri 10:30:00 PM 44.0437 174.5869 254° West 466 536 40,000  Level FlightAware Transoceanic
Fri 10:31:00 PM 44.0083 174.4142 254° West 466 536 40,000  Level FlightAware Transoceanic
Fri 10:32:00 PM 43.9727 174.2417 254° West 466 536 40,000  Level FlightAware Transoceanic
Fri 10:33:00 PM 43.9368 174.0695 254° West 466 536 40,000  Level FlightAware Transoceanic
Fri 10:34:00 PM 43.9007 173.8974 254° West 466 536 40,000  Level FlightAware Transoceanic
Fri 10:35:00 PM 43.8643 173.7256 254° West 466 536 40,000  Level FlightAware Transoceanic
Fri 10:35:14 PM 43.8667 173.7667 254° West 460 529 40,000  Level Oakland Oceanic (ODAPS)
Fri 10:36:00 PM 43.8277 173.5540 253° West 466 536 40,000  Level FlightAware Transoceanic
Fri 10:37:00 PM 43.7908 173.3826 253° West 466 536 40,000  Level FlightAware Transoceanic
Fri 10:38:00 PM 43.7536 173.2114 253° West 466 536 40,000  Level FlightAware Transoceanic
Fri 10:39:00 PM 43.7162 173.0404 253° West 466 536 40,000  Level FlightAware Transoceanic
Fri 10:40:00 PM 43.6786 172.8696 253° West 466 536 40,000  Level FlightAware Transoceanic
Fri 10:41:00 PM 43.6526 172.7737 253° West 460 529 40,000  Level FlightAware Transoceanic
Fri 10:42:00 PM 43.6160 172.6089 253° West 460 529 40,000  Level FlightAware Transoceanic
Fri 10:43:00 PM 43.5793 172.4443 253° West 460 529 40,000  Level FlightAware Transoceanic
Fri 10:44:00 PM 43.5423 172.2799 253° West 460 529 40,000  Level FlightAware Transoceanic
Fri 10:45:00 PM 43.5051 172.1158 253° West 460 529 40,000  Level FlightAware Transoceanic
Fri 10:46:00 PM 43.4676 171.9518 252° West 460 529 40,000  Level FlightAware Transoceanic
Fri 10:47:00 PM 43.4299 171.7880 252° West 460 529 40,000  Level FlightAware Transoceanic
Fri 10:48:00 PM 43.3920 171.6244 252° West 460 529 40,000  Level FlightAware Transoceanic
Fri 10:49:00 PM 43.3538 171.4610 252° West 460 529 40,000  Level FlightAware Transoceanic
Fri 10:49:10 PM 43.3667 171.4833 252° West 445 512 40,000  Level Oakland Oceanic (ODAPS)
Fri 10:50:00 PM 43.3154 171.2979 252° West 460 529 40,000  Level FlightAware Transoceanic
Fri 10:51:00 PM 43.2768 171.1349 252° West 460 529 40,000  Level FlightAware Transoceanic
Fri 10:52:00 PM 43.2379 170.9721 252° West 460 529 40,000  Level FlightAware Transoceanic
Fri 10:52:05 PM 43.2500 171.0000 251° West 460 529 40,000  Level Oakland Oceanic (ODAPS)
Fri 10:53:00 PM 43.1989 170.8096 252° West 460 529 40,000  Level FlightAware Transoceanic
Fri 10:54:00 PM 43.1595 170.6472 252° West 460 529 40,000  Level FlightAware Transoceanic
Fri 10:55:00 PM 43.1244 170.4925 251° West 445 512 40,000  Level FlightAware Transoceanic
Fri 10:56:00 PM 43.0831 170.3281 251° West 445 512 40,000  Level FlightAware Transoceanic
Fri 10:57:00 PM 43.0417 170.1639 251° West 445 512 40,000  Level FlightAware Transoceanic
Fri 10:58:00 PM 43.0363 170.1424 251° West 460 529 40,000  Level FlightAware Transoceanic
Fri 10:59:00 PM 43.0000 170.0000 252° West 460 529 40,000  Level FlightAware Transoceanic
Fri 10:59:20 PM 42.9833 169.9500 252° West 438 504 40,000  Level Oakland Oceanic (ODAPS)
Fri 11:00:00 PM 42.9618 169.8440 251° West 460 529 40,000  Level FlightAware Transoceanic
Fri 11:01:00 PM 42.9234 169.6883 251° West 460 529 40,000  Level FlightAware Transoceanic
Fri 11:02:00 PM 42.8848 169.5327 251° West 460 529 40,000  Level FlightAware Transoceanic
Fri 11:02:58 PM 42.8500 169.3833 251° West 435 501 40,000  Level Oakland Oceanic (ODAPS)
Fri 11:03:00 PM 42.8459 169.3773 251° West 460 529 40,000  Level FlightAware Transoceanic
Fri 11:04:00 PM 42.8069 169.2222 251° West 460 529 40,000  Level FlightAware Transoceanic
Fri 11:05:00 PM 42.7485 169.0081 251° West 438 504 40,000  Level FlightAware Transoceanic
Fri 11:06:00 PM 42.7087 168.8517 251° West 438 504 40,000  Level FlightAware Transoceanic
Fri 11:07:00 PM 42.6686 168.6957 251° West 438 504 40,000  Level FlightAware Transoceanic
Fri 11:08:00 PM 42.6283 168.5398 251° West 438 504 40,000  Level FlightAware Transoceanic
Fri 11:09:00 PM 42.6123 168.4546 250° West 435 501 40,000  Level FlightAware Transoceanic
Fri 11:09:20 PM 42.6000 168.4000 250° West 435 501 40,000  Level Oakland Oceanic (ODAPS)
Fri 11:09:40 PM 42.6000 168.4000 250° West 437 503 40,000  Level Oakland Oceanic (ODAPS)
Fri 11:10:00 PM 42.5719 168.3005 250° West 435 501 40,000  Level FlightAware Transoceanic
Fri 11:11:00 PM 42.5314 168.1466 250° West 435 501 40,000  Level FlightAware Transoceanic
Fri 11:12:00 PM 42.4906 167.9929 250° West 435 501 40,000  Level FlightAware Transoceanic
Fri 11:13:00 PM 42.4496 167.8394 250° West 435 501 40,000  Level FlightAware Transoceanic
Fri 11:14:00 PM 42.4085 167.6861 250° West 435 501 40,000  Level FlightAware Transoceanic
Fri 11:15:00 PM 42.3557 167.4845 250° West 437 503 40,000  Level FlightAware Transoceanic
Fri 11:16:00 PM 42.3143 167.3326 250° West 437 503 40,000  Level FlightAware Transoceanic
Fri 11:16:53 PM 42.3167 167.3667 250° West 428 493 40,000  Level Oakland Oceanic (ODAPS)
Fri 11:17:00 PM 42.2727 167.1809 250° West 437 503 40,000  Level FlightAware Transoceanic
Fri 11:18:00 PM 42.2309 167.0294 249° West 437 503 40,000  Level FlightAware Transoceanic
Fri 11:19:00 PM 42.1889 166.8782 249° West 437 503 40,000  Level FlightAware Transoceanic
Fri 11:20:00 PM 42.1467 166.7271 249° West 437 503 40,000  Level FlightAware Transoceanic
Fri 11:21:00 PM 42.1043 166.5762 249° West 437 503 40,000  Level FlightAware Transoceanic
Fri 11:22:00 PM 42.0616 166.4255 249° West 437 503 40,000  Level FlightAware Transoceanic
Fri 11:23:00 PM 42.0639 166.4553 249° West 428 493 40,000  Level FlightAware Transoceanic
Fri 11:24:00 PM 42.0211 166.3042 249° West 428 493 40,000  Level FlightAware Transoceanic
Fri 11:25:00 PM 41.9781 166.1532 249° West 428 493 40,000  Level FlightAware Transoceanic
Fri 11:26:00 PM 41.9349 166.0024 249° West 428 493 40,000  Level FlightAware Transoceanic
Fri 11:27:00 PM 41.8915 165.8519 249° West 428 493 40,000  Level FlightAware Transoceanic
Fri 11:28:00 PM 41.8479 165.7015 249° West 428 493 40,000  Level FlightAware Transoceanic
Fri 11:29:00 PM 41.8041 165.5513 249° West 428 493 40,000  Level FlightAware Transoceanic
Fri 11:30:00 PM 41.7601 165.4014 248° West 428 493 40,000  Level FlightAware Transoceanic
Fri 11:30:43 PM 41.7333 165.3000 248° West 441 507 40,000  Level Oakland Oceanic (ODAPS)
Fri 11:31:00 PM 41.7159 165.2516 248° West 428 493 40,000  Level FlightAware Transoceanic
Fri 11:32:00 PM 41.6715 165.1021 248° West 428 493 40,000  Level FlightAware Transoceanic
Fri 11:33:00 PM 41.6269 164.9528 248° West 428 493 40,000  Level FlightAware Transoceanic
Fri 11:34:00 PM 41.5821 164.8036 248° West 428 493 40,000  Level FlightAware Transoceanic
Fri 11:35:00 PM 41.5372 164.6547 248° West 428 493 40,000  Level FlightAware Transoceanic
Fri 11:36:00 PM 41.5008 164.5259 248° West 441 507 40,000  Level FlightAware Transoceanic
Fri 11:37:00 PM 41.4536 164.3718 248° West 441 507 40,000  Level FlightAware Transoceanic
Fri 11:38:00 PM 41.4063 164.2178 248° West 441 507 40,000  Level FlightAware Transoceanic
Fri 11:39:00 PM 41.3588 164.0642 248° West 441 507 40,000  Level FlightAware Transoceanic
Fri 11:40:00 PM 41.3110 163.9107 247° West 441 507 40,000  Level FlightAware Transoceanic
Fri 11:41:00 PM 41.2631 163.7574 247° West 441 507 40,000  Level FlightAware Transoceanic
Fri 11:42:00 PM 41.2149 163.6044 247° West 441 507 40,000  Level FlightAware Transoceanic
Fri 11:43:00 PM 41.1665 163.4516 247° West 441 507 40,000  Level FlightAware Transoceanic
Fri 11:44:00 PM 41.1180 163.2991 247° West 441 507 40,000  Level FlightAware Transoceanic
Fri 11:45:00 PM 41.0692 163.1467 247° West 441 507 40,000  Level FlightAware Transoceanic
Fri 11:46:00 PM 41.0203 162.9946 247° West 441 507 40,000  Level FlightAware Transoceanic
Fri 11:47:00 PM 40.9711 162.8427 247° West 441 507 40,000  Level FlightAware Transoceanic
Fri 11:48:00 PM 40.9217 162.6910 247° West 441 507 40,000  Level FlightAware Transoceanic
Fri 11:49:00 PM 40.8722 162.5396 247° West 441 507 40,000  Level FlightAware Transoceanic
Fri 11:50:00 PM 40.8224 162.3884 246° West 441 507 40,000  Level FlightAware Transoceanic
Fri 11:51:00 PM 40.7725 162.2374 246° West 441 507 40,000  Level FlightAware Transoceanic
Fri 11:52:00 PM 40.7223 162.0867 246° West 441 507 40,000  Level FlightAware Transoceanic
Fri 11:53:00 PM 40.6720 161.9361 246° West 441 507 40,000  Level FlightAware Transoceanic
Fri 11:54:00 PM 40.6215 161.7858 246° West 441 507 40,000  Level FlightAware Transoceanic
Fri 11:55:00 PM 40.5707 161.6358 246° West 441 507 40,000  Level FlightAware Transoceanic
Fri 11:56:00 PM 40.5198 161.4859 246° West 441 507 40,000  Level FlightAware Transoceanic
Fri 11:57:00 PM 40.4687 161.3363 246° West 441 507 40,000  Level FlightAware Transoceanic
Fri 11:58:00 PM 40.4174 161.1869 246° West 441 507 40,000  Level FlightAware Transoceanic
Fri 11:59:00 PM 40.3659 161.0377 246° West 441 507 40,000  Level FlightAware Transoceanic
Sat 12:00:00 AM 40.3142 160.8888 245° Southwest 441 507 40,000  Level FlightAware Transoceanic
Sat 12:01:00 AM 40.2623 160.7401 245° Southwest 441 507 40,000  Level FlightAware Transoceanic
Sat 12:02:00 AM 40.2102 160.5916 245° Southwest 441 507 40,000  Level FlightAware Transoceanic
Sat 12:03:00 AM 40.1579 160.4434 245° Southwest 441 507 40,000  Level FlightAware Transoceanic
Sat 12:04:00 AM 40.1055 160.2953 245° Southwest 441 507 40,000  Level FlightAware Transoceanic
Sat 12:05:00 AM 40.0528 160.1476 245° Southwest 441 507 40,000  Level FlightAware Transoceanic
Sat 12:06:00 AM 40.0000 160.0000 252° West 441 507 40,000  Level FlightAware Transoceanic
Sat 12:07:00 AM 39.9638 159.8535 252° West 441 507 40,000  Level FlightAware Transoceanic
Sat 12:08:00 AM 39.9275 159.7071 252° West 441 507 40,000  Level FlightAware Transoceanic
Sat 12:09:00 AM 39.8910 159.5609 252° West 441 507 40,000  Level FlightAware Transoceanic
Sat 12:10:00 AM 39.8543 159.4148 252° West 441 507 40,000  Level FlightAware Transoceanic
Sat 12:11:00 AM 39.8174 159.2689 252° West 441 507 40,000  Level FlightAware Transoceanic
Sat 12:12:00 AM 39.7803 159.1231 252° West 441 507 40,000  Level FlightAware Transoceanic
Sat 12:13:00 AM 39.7430 158.9775 252° West 441 507 40,000  Level FlightAware Transoceanic
Sat 12:14:00 AM 39.7056 158.8321 251° West 441 507 40,000  Level FlightAware Transoceanic
Sat 12:15:00 AM 39.6679 158.6868 251° West 441 507 40,000  Level FlightAware Transoceanic
Sat 12:16:00 AM 39.6301 158.5417 251° West 441 507 40,000  Level FlightAware Transoceanic
Sat 12:17:00 AM 39.5922 158.3967 251° West 441 507 40,000  Level FlightAware Transoceanic
Sat 12:18:00 AM 39.5540 158.2519 251° West 441 507 40,000  Level FlightAware Transoceanic
Sat 12:19:00 AM 39.5157 158.1073 251° West 441 507 40,000  Level FlightAware Transoceanic
Sat 12:20:00 AM 39.4771 157.9628 251° West 441 507 40,000  Level FlightAware Transoceanic
Sat 12:21:00 AM 39.4384 157.8184 251° West 441 507 40,000  Level FlightAware Transoceanic
Sat 12:22:00 AM 39.3996 157.6743 251° West 441 507 40,000  Level FlightAware Transoceanic
Sat 12:23:00 AM 39.3605 157.5303 251° West 441 507 40,000  Level FlightAware Transoceanic
Sat 12:24:00 AM 39.3213 157.3864 251° West 441 507 40,000  Level FlightAware Transoceanic
Sat 12:25:00 AM 39.2818 157.2427 250° West 441 507 40,000  Level FlightAware Transoceanic
Sat 12:26:00 AM 39.2423 157.0992 250° West 441 507 40,000  Level FlightAware Transoceanic
Sat 12:27:00 AM 39.2025 156.9559 250° West 441 507 40,000  Level FlightAware Transoceanic
Sat 12:28:00 AM 39.1626 156.8127 250° West 441 507 40,000  Level FlightAware Transoceanic
Sat 12:29:00 AM 39.1224 156.6696 250° West 441 507 40,000  Level FlightAware Transoceanic
Sat 12:30:00 AM 39.0821 156.5268 250° West 441 507 40,000  Level FlightAware Transoceanic
Sat 12:31:00 AM 39.0417 156.3841 250° West 441 507 40,000  Level FlightAware Transoceanic
Sat 12:32:00 AM 39.0010 156.2415 250° West 441 507 40,000  Level FlightAware Transoceanic
Sat 12:33:00 AM 38.9602 156.0991 250° West 441 507 40,000  Level FlightAware Transoceanic
Sat 12:34:00 AM 38.9193 155.9569 250° West 441 507 40,000  Level FlightAware Transoceanic
Sat 12:35:00 AM 38.8781 155.8149 250° West 441 507 40,000  Level FlightAware Transoceanic
Sat 12:36:00 AM 38.8368 155.6730 249° West 441 507 40,000  Level FlightAware Transoceanic
Sat 12:37:00 AM 38.7953 155.5313 249° West 441 507 40,000  Level FlightAware Transoceanic
Sat 12:38:00 AM 38.7536 155.3897 249° West 441 507 40,000  Level FlightAware Transoceanic
Sat 12:39:00 AM 38.7118 155.2483 249° West 441 507 40,000  Level FlightAware Transoceanic
Sat 12:40:00 AM 38.6698 155.1071 249° West 441 507 40,000  Level FlightAware Transoceanic
Sat 12:41:00 AM 38.6276 154.9660 249° West 441 507 40,000  Level FlightAware Transoceanic
Sat 12:42:00 AM 38.5852 154.8252 249° West 441 507 40,000  Level FlightAware Transoceanic
Sat 12:43:00 AM 38.5427 154.6844 249° West 441 507 40,000  Level FlightAware Transoceanic
Sat 12:44:00 AM 38.5000 154.5439 249° West 441 507 40,000  Level FlightAware Transoceanic
Sat 12:45:00 AM 38.4572 154.4035 249° West 441 507 40,000  Level FlightAware Transoceanic
Sat 12:46:00 AM 38.4142 154.2633 249° West 441 507 40,000  Level FlightAware Transoceanic
Sat 12:47:00 AM 38.3710 154.1232 248° West 441 507 40,000  Level FlightAware Transoceanic
Sat 12:48:00 AM 38.3276 153.9833 248° West 441 507 40,000  Level FlightAware Transoceanic
Sat 12:49:00 AM 38.2841 153.8436 248° West 441 507 40,000  Level FlightAware Transoceanic
Sat 12:50:00 AM 38.2404 153.7041 248° West 441 507 40,000  Level FlightAware Transoceanic
Sat 12:51:00 AM 38.1965 153.5647 248° West 441 507 40,000  Level FlightAware Transoceanic
Sat 12:52:00 AM 38.1525 153.4254 248° West 441 507 40,000  Level FlightAware Transoceanic
Sat 12:53:00 AM 38.1083 153.2864 248° West 441 507 40,000  Level FlightAware Transoceanic
Sat 12:54:00 AM 38.0640 153.1475 248° West 441 507 40,000  Level FlightAware Transoceanic
Sat 12:55:00 AM 38.0195 153.0088 248° West 441 507 40,000  Level FlightAware Transoceanic
Sat 12:56:00 AM 37.9748 152.8703 248° West 441 507 40,000  Level FlightAware Transoceanic
Sat 12:57:00 AM 37.9300 152.7319 248° West 441 507 40,000  Level FlightAware Transoceanic
Sat 12:58:00 AM 37.8850 152.5937 248° West 441 507 40,000  Level FlightAware Transoceanic
Sat 12:59:00 AM 37.8399 152.4556 247° West 441 507 40,000  Level FlightAware Transoceanic
Sat 01:00:00 AM 37.7945 152.3178 247° West 441 507 40,000  Level FlightAware Transoceanic
Sat 01:01:00 AM 37.7491 152.1801 247° West 441 507 40,000  Level FlightAware Transoceanic
Sat 01:02:00 AM 37.7034 152.0425 247° West 441 507 40,000  Level FlightAware Transoceanic
Sat 01:03:00 AM 37.6576 151.9052 247° West 441 507 40,000  Level FlightAware Transoceanic
Sat 01:04:00 AM 37.6117 151.7680 247° West 441 507 40,000  Level FlightAware Transoceanic
Sat 01:05:00 AM 37.5656 151.6310 247° West 441 507 40,000  Level FlightAware Transoceanic
Sat 01:06:00 AM 37.5193 151.4941 247° West 441 507 40,000  Level FlightAware Transoceanic
Sat 01:07:00 AM 37.4729 151.3574 247° West 441 507 40,000  Level FlightAware Transoceanic
Sat 01:08:00 AM 37.4263 151.2209 247° West 441 507 40,000  Level FlightAware Transoceanic
Sat 01:09:00 AM 37.3795 151.0846 247° West 441 507 40,000  Level FlightAware Transoceanic
Sat 01:10:00 AM 37.3326 150.9484 247° West 441 507 40,000  Level FlightAware Transoceanic
Sat 01:11:00 AM 37.2856 150.8124 246° West 441 507 40,000  Level FlightAware Transoceanic
Sat 01:12:00 AM 37.2384 150.6766 246° West 441 507 40,000  Level FlightAware Transoceanic
Sat 01:13:00 AM 37.1910 150.5409 246° West 441 507 40,000  Level FlightAware Transoceanic
Sat 01:14:00 AM 37.1435 150.4054 246° West 441 507 40,000  Level FlightAware Transoceanic
Sat 01:15:00 AM 37.0958 150.2701 246° West 441 507 40,000  Level FlightAware Transoceanic
Sat 01:16:00 AM 37.0480 150.1350 246° West 441 507 40,000 -75 Level FlightAware Transoceanic
Sat 01:17:00 AM 36.9976 149.9932 246° West  Level FlightAware Approximate
Sat 01:18:00 AM 36.9990 149.9852 265° West  Level FlightAware Approximate
Sat 01:19:00 AM 36.9881 149.8306 265° West  Level FlightAware Approximate
Sat 01:20:00 AM 36.9770 149.6762 265° West  Level FlightAware Approximate
Sat 01:21:00 AM 36.9658 149.5217 265° West  Level FlightAware Approximate
Sat 01:22:00 AM 36.9543 149.3673 265° West  Level FlightAware Approximate
Sat 01:23:00 AM 36.9426 149.2130 265° West  Level FlightAware Approximate
Sat 01:24:00 AM 36.9308 149.0587 265° West  Level FlightAware Approximate
Sat 01:25:00 AM 36.9187 148.9044 264° West  Level FlightAware Approximate
Sat 01:26:00 AM 36.9064 148.7502 264° West  Level FlightAware Approximate
Sat 01:27:00 AM 36.8940 148.5960 264° West  Level FlightAware Approximate
Sat 01:28:00 AM 36.8783 148.4426 255° West  Level FlightAware Approximate
Sat 01:29:00 AM 36.8465 148.2929 255° West  Level FlightAware Approximate
Sat 01:30:00 AM 36.8147 148.1433 255° West  Level FlightAware Approximate
Sat 01:31:00 AM 36.7826 147.9939 255° West  Level FlightAware Approximate
Sat 01:32:00 AM 36.7503 147.8445 255° West  Level FlightAware Approximate
Sat 01:33:00 AM 36.7178 147.6953 255° West  Level FlightAware Approximate
Sat 01:34:00 AM 36.6852 147.5462 255° West  Level FlightAware Approximate
Sat 01:35:00 AM 36.6523 147.3973 255° West  Level FlightAware Approximate
Sat 01:36:00 AM 36.6193 147.2485 255° West  Level FlightAware Approximate
Sat 01:37:00 AM 36.5861 147.0998 255° West  Level FlightAware Approximate
Sat 01:38:00 AM 36.5527 146.9512 254° West  Level FlightAware Approximate
Sat 01:39:00 AM 36.5192 146.8028 254° West  Level FlightAware Approximate
Sat 01:40:00 AM 36.4854 146.6544 254° West  Level FlightAware Approximate
Sat 01:41:00 AM 36.4514 146.5058 254° West  Level FlightAware Approximate
Sat 01:42:00 AM 36.4171 146.3574 254° West  Level FlightAware Approximate
Sat 01:43:00 AM 36.3769 146.2115 248° West  Level FlightAware Approximate
Sat 01:44:00 AM 36.3307 146.0683 248° West  Level FlightAware Approximate
Sat 01:45:00 AM 36.2844 145.9252 248° West  Level FlightAware Approximate
Sat 01:46:00 AM 36.2378 145.7823 248° West  Level FlightAware Approximate
Sat 01:47:00 AM 36.1930 145.6387 253° West  Level FlightAware Approximate
Sat 01:48:00 AM 36.1563 145.4917 253° West  Level FlightAware Approximate
Sat 01:49:00 AM 36.1300 145.3414 259° West  Level FlightAware Approximate
Sat 01:50:00 AM 36.1056 145.1906 259° West  Level FlightAware Approximate
Sat 01:51:00 AM 36.0811 145.0398 259° West  Level FlightAware Approximate
Sat 01:52:00 AM 36.0564 144.8892 259° West  Level FlightAware Approximate
Sat 01:53:00 AM 36.0315 144.7386 258° West  Level FlightAware Approximate
Sat 01:54:00 AM 36.0064 144.5881 258° West  Level FlightAware Approximate
Sat 01:54:48 AM 36.0160 144.6400 258° West 434 499 37,000  Level FlightAware ADS-B
Sat 01:55:00 AM 35.9812 144.4378 258° West  Level FlightAware Approximate
Sat 01:55:23 AM 36.0030 144.5540 259° West 433 498 37,000  Level FlightAware ADS-B
Sat 01:56:03 AM 35.9900 144.4740 259° West 433 498 37,000  Level FlightAware ADS-B
Sat 01:56:43 AM 35.9730 144.3720 258° West 432 497 37,000  Level FlightAware ADS-B
Sat 01:57:13 AM 35.9620 144.2980 260° West 430 495 37,000  Level FlightAware ADS-B
Sat 01:57:51 AM 35.9490 144.2210 258° West 430 495 37,000  Level FlightAware ADS-B
Sat 01:58:28 AM 35.9330 144.1130 260° West 747 860 37,000  Level FlightAware ADS-B
Sat 01:59:18 AM 35.9140 144.0000 258° West 427 491 37,000  Level FlightAware ADS-B
Sat 01:59:48 AM 35.9010 143.9210 259° West 427 491 37,000  Level FlightAware ADS-B
Sat 02:00:28 AM 35.8860 143.8280 259° West 428 493 37,000  Level FlightAware ADS-B
Sat 02:01:09 AM 35.8650 143.7300 255° West 428 493 37,000  Level FlightAware ADS-B
Sat 02:01:58 AM 35.8410 143.6090 256° West 461 531 37,000  Level FlightAware ADS-B
Sat 02:02:39 AM 35.8240 143.5260 256° West 431 496 37,000  Level FlightAware ADS-B
Sat 02:03:17 AM 35.8030 143.4230 256° West 429 494 37,000 -348 Level FlightAware ADS-B
Sat 02:03:48 AM 35.7880 143.3490 256° West 427 491 36,600 -1,775 Descending FlightAware ADS-B
Sat 02:04:28 AM 35.7700 143.2560 257° West 429 494 34,900 -2,658 Descending FlightAware ADS-B
Sat 02:05:07 AM 35.7490 143.1580 255° West 432 497 33,100 -2,400 Descending FlightAware ADS-B
Sat 02:05:43 AM 35.7330 143.0780 256° West 433 498 31,900 -2,113 Descending FlightAware ADS-B
Sat 02:06:18 AM 35.7150 142.9910 256° West 436 502 30,600 -1,941 Descending FlightAware ADS-B
Sat 02:06:51 AM 35.7020 142.9250 256° West 434 499 29,700 -2,000 Descending FlightAware ADS-B
Sat 02:07:33 AM 35.6790 142.8160 255° West 423 487 28,100 -2,127 Descending FlightAware ADS-B
Sat 02:08:10 AM 35.6620 142.7350 256° West 414 476 26,900 -2,143 Descending FlightAware ADS-B
Sat 02:08:43 AM 35.6450 142.6530 256° West 423 487 25,600 -2,118 Descending FlightAware ADS-B
Sat 02:09:18 AM 35.6320 142.5690 259° West 420 483 24,500 -1,333 Descending FlightAware ADS-B
Sat 02:09:55 AM 35.6390 142.4860 276° West 408 470 24,000 -930 Descending FlightAware ADS-B
Sat 02:10:29 AM 35.6490 142.4120 279° West 406 467 23,400 -971 Descending FlightAware ADS-B
Sat 02:11:03 AM 35.6600 142.3310 280° West 404 465 22,900 -553 Descending FlightAware ADS-B
Sat 02:11:45 AM 35.6710 142.2480 279° West 400 460 22,700 -316 Descending FlightAware ADS-B
Sat 02:12:19 AM 35.6830 142.1610 280° West 399 459 22,500 -250 Descending FlightAware ADS-B
Sat 02:12:57 AM 35.6930 142.0830 279° West 400 460 22,400 -254 Descending FlightAware ADS-B
Sat 02:13:30 AM 35.7040 142.0050 280° West 400 460 22,200 -348 Descending FlightAware ADS-B
Sat 02:14:06 AM 35.7140 141.9260 279° West 402 463 22,000 -395 Descending FlightAware ADS-B
Sat 02:14:46 AM 35.7260 141.8330 279° West 392 451 21,700 -698 Descending FlightAware ADS-B
Sat 02:15:32 AM 35.7390 141.7330 279° West 370 426 21,000 -776 Descending FlightAware ADS-B
Sat 02:16:11 AM 35.7490 141.6610 280° West 339 390 20,600 -640 Descending FlightAware ADS-B
Sat 02:16:47 AM 35.7570 141.5960 279° West 327 376 20,200 -618 Descending FlightAware ADS-B
Sat 02:17:19 AM 35.7650 141.5330 279° West 320 368 19,900 -455 Descending FlightAware ADS-B
Sat 02:17:53 AM 35.7720 141.4790 279° West 319 367 19,700 -480 Descending FlightAware ADS-B
Sat 02:18:34 AM 35.7820 141.4040 279° West 305 351 19,300 -720 Descending FlightAware ADS-B
Sat 02:19:08 AM 35.7890 141.3450 278° West 293 337 18,800 -935 Descending FlightAware ADS-B
Sat 02:19:51 AM 35.7980 141.2720 279° West 281 323 18,100 -960 Descending FlightAware ADS-B
Sat 02:20:23 AM 35.8050 141.2240 280° West 272 313 17,600 -1,000 Descending FlightAware ADS-B
Sat 02:21:03 AM 35.8120 141.1630 278° West 266 306 16,900 -1,099 Descending FlightAware ADS-B
Sat 02:21:34 AM 35.8180 141.1170 279° West 264 304 16,300 -1,164 Descending FlightAware ADS-B
Sat 02:22:10 AM 35.8240 141.0690 279° West 263 303 15,600 -1,099 Descending FlightAware ADS-B
Sat 02:22:45 AM 35.8310 141.0150 279° West 258 297 15,000 -1,043 Descending FlightAware ADS-B
Sat 02:23:19 AM 35.8370 140.9630 278° West 254 292 14,400 -1,080 Descending FlightAware ADS-B
Sat 02:23:35 AM 35.8360 140.9380 267° West 253 291 14,100 -1,176 Descending FlightAware ADS-B
Sat 02:24:10 AM 35.8180 140.8950 243° Southwest 256 295 13,400 -1,143 Descending FlightAware ADS-B
Sat 02:24:38 AM 35.8010 140.8570 241° Southwest 253 291 12,900 -1,167 Descending FlightAware ADS-B
Sat 02:24:46 AM 35.7990 140.8460 257° West 249 287 12,700 -1,235 Descending FlightAware ADS-B
Sat 02:25:12 AM 35.8090 140.8130 290° West 252 290 12,200 -1,091 Descending FlightAware ADS-B
Sat 02:25:19 AM 35.8150 140.8070 321° Northwest 259 298 12,100 -1,143 Descending FlightAware ADS-B
Sat 02:25:54 AM 35.8550 140.7880 339° North 270 311 11,400 -1,083 Descending FlightAware ADS-B
Sat 02:26:31 AM 35.8980 140.7680 339° North 263 303 10,800 -943 Descending FlightAware ADS-B
Sat 02:27:04 AM 35.9360 140.7510 340° North 262 302 10,300 -857 Descending FlightAware ADS-B
Sat 02:27:20 AM 35.9540 140.7400 334° Northwest 254 292 10,100 -1,000 Descending FlightAware ADS-B
Sat 02:27:28 AM 35.9610 140.7320 317° Northwest 246 283 9,900 -1,200 Descending FlightAware ADS-B
Sat 02:27:40 AM 35.9660 140.7180 294° West 241 277 9,700 -1,200 Descending FlightAware ADS-B
Sat 02:27:48 AM 35.9680 140.7080 284° West 241 277 9,500 -1,071 Descending FlightAware ADS-B
Sat 02:28:08 AM 35.9690 140.6790 272° West 238 274 9,200 -1,000 Descending FlightAware ADS-B
Sat 02:28:24 AM 35.9700 140.6590 274° West 233 268 8,900 -1,059 Descending FlightAware ADS-B
Sat 02:28:42 AM 35.9720 140.6340 276° West 229 264 8,600 -1,200 Descending FlightAware ADS-B
Sat 02:29:04 AM 35.9740 140.6060 275° West 228 262 8,100 -1,421 Descending FlightAware ADS-B
Sat 02:29:20 AM 35.9770 140.5860 281° West 226 260 7,700 -1,167 Descending FlightAware ADS-B
Sat 02:29:40 AM 35.9820 140.5620 284° West 221 254 7,400 -857 Descending FlightAware ADS-B
Sat 02:29:48 AM 35.9870 140.5520 302° West 225 259 7,300 -214 Descending FlightAware ADS-B
Sat 02:30:08 AM 36.0000 140.5330 310° West 228 262 7,300  Level FlightAware ADS-B
Sat 02:30:28 AM 36.0160 140.5140 316° Northwest 228 262 7,300  Level FlightAware ADS-B
Sat 02:30:40 AM 36.0250 140.5040 318° Northwest 228 262 7,300  Level FlightAware ADS-B
Sat 02:31:01 AM 36.0410 140.4860 318° Northwest 227 261 7,300 -136 Level FlightAware ADS-B
Sat 02:31:24 AM 36.0580 140.4650 315° West 229 264 7,200 -558 Descending FlightAware ADS-B
Sat 02:31:44 AM 36.0740 140.4460 316° Northwest 227 261 6,900 -828 Descending FlightAware ADS-B
Sat 02:31:53 AM 36.0790 140.4370 305° West 224 258 6,800 -750 Descending FlightAware ADS-B
Sat 02:32:00 AM 36.0820 140.4290 295° West 222 255 6,700 -1,111 Descending FlightAware ADS-B
Sat 02:32:20 AM 36.0870 140.4030 283° West 220 253 6,300 -600 Descending FlightAware ADS-B
Sat 02:32:40 AM 36.0910 140.3800 282° West 219 252 6,300  Level FlightAware ADS-B
Sat 02:32:56 AM 36.0950 140.3610 285° West 204 235 6,300  Level FlightAware ADS-B
Sat 02:33:17 AM 36.0980 140.3400 280° West 190 219 6,300 -150 Level FlightAware ADS-B
Sat 02:33:36 AM 36.1020 140.3170 282° West 189 217 6,200 -615 Descending FlightAware ADS-B
Sat 02:33:56 AM 36.1060 140.2960 283° West 190 219 5,900 -1,167 Descending FlightAware ADS-B
Sat 02:34:12 AM 36.1090 140.2800 283° West 191 220 5,500 -1,500 Descending FlightAware ADS-B
Sat 02:34:32 AM 36.1130 140.2580 283° West 196 226 5,000 -1,317 Descending FlightAware ADS-B
Sat 02:34:53 AM 36.1170 140.2350 282° West 201 231 4,600 -1,000 Descending FlightAware ADS-B
Sat 02:35:08 AM 36.1200 140.2170 282° West 200 230 4,400 -545 Descending FlightAware ADS-B
Sat 02:35:26 AM 36.1230 140.1980 281° West 196 226 4,300 -150 Descending FlightAware ADS-B
Sat 02:35:48 AM 36.1190 140.1740 258° West 200 230 4,300  Level FlightAware ADS-B
Sat 02:35:56 AM 36.1150 140.1650 241° Southwest 203 234 4,300  Level FlightAware ADS-B
Sat 02:36:04 AM 36.1110 140.1580 235° Southwest 203 234 4,300  Level FlightAware ADS-B
Sat 02:36:16 AM 36.1030 140.1490 222° Southwest 206 237 4,300  Level FlightAware ADS-B
Sat 02:36:24 AM 36.0960 140.1440 210° Southwest 207 238 4,300  Level FlightAware ADS-B
Sat 02:36:32 AM 36.0880 140.1420 191° South 209 241 4,300  Level FlightAware ADS-B
Sat 02:36:52 AM 36.0720 140.1500 158° South 213 245 4,300  Level FlightAware ADS-B
Sat 02:37:02 AM 36.0630 140.1580 144° Southeast 216 249 4,300  Level FlightAware ADS-B
Sat 02:37:27 AM 36.0410 140.1740 150° Southeast 215 247 4,300  Level FlightAware ADS-B
Sat 02:37:48 AM 36.0280 140.1840 148° Southeast 214 246 4,300  Level FlightAware ADS-B
Sat 02:38:04 AM 36.0080 140.1980 150° Southeast 216 249 4,300  Level FlightAware ADS-B
Sat 02:38:24 AM 35.9920 140.2110 147° Southeast 216 249 4,300  Level FlightAware ADS-B
Sat 02:38:45 AM 35.9740 140.2230 152° Southeast 209 241 4,300  Level FlightAware ADS-B
Sat 02:39:00 AM 35.9620 140.2320 149° Southeast 202 232 4,300 -162 Level FlightAware ADS-B
Sat 02:39:22 AM 35.9430 140.2460 149° Southeast 203 234 4,200 -706 Descending FlightAware ADS-B
Sat 02:39:34 AM 35.9340 140.2530 148° Southeast 204 235 3,900 -1,313 Descending FlightAware ADS-B
Sat 02:39:54 AM 35.9180 140.2640 151° Southeast 205 236 3,500 -1,167 Descending FlightAware ADS-B
Sat 02:40:10 AM 35.9050 140.2740 148° Southeast 195 224 3,200 -1,000 Descending FlightAware ADS-B
Sat 02:40:30 AM 35.8890 140.2850 151° Southeast 186 214 2,900 -1,000 Descending FlightAware ADS-B
Sat 02:40:52 AM 35.8730 140.2970 149° Southeast 177 204 2,500 -882 Descending FlightAware ADS-B
Sat 02:41:04 AM 35.8660 140.3020 150° Southeast 176 203 2,400 -833 Descending FlightAware ADS-B
Sat 02:41:28 AM 35.8490 140.3140 150° Southeast 173 199 2,000 -1,000 Descending FlightAware ADS-B
Sat 02:41:40 AM 35.8410 140.3200 149° Southeast 161 185 1,800 -750 Descending FlightAware ADS-B
Sat 02:42:08 AM 35.8230 140.3330 150° Southeast 157 181 1,500 -682 Descending FlightAware ADS-B
Sat 02:42:24 AM 35.8130 140.3400 150° Southeast 155 178 1,300 -833 Descending FlightAware ADS-B
Sat 02:42:44 AM 35.8010 140.3490 149° Southeast 152 175 1,000 -769 Descending FlightAware ADS-B
Sat 02:43:03 AM 35.7890 140.3570 152° Southeast 151 174 800 -632 Descending FlightAware ADS-B
Sat 02:43:22 AM 35.7780 140.3660 146° Southeast 150 173 600 -261 Descending FlightAware ADS-B
Sat 02:43:49 AM 35.7650 140.3760 148° Southeast 150 173 600  Level FlightAware ADS-B

Login

Don't have an account? Register now (free) for customized features, flight alerts, and more!